Observation data for Kent I10-I20 Split on 11/17/2019      Previous  Date       Current Mesonet Observations  Soil Data  Daily Summary Page  Observations in Plain Language
KKE1 170600Z 23017KT 16/03 A3003 RMK A01 T01630034  RH  042%=      5-min Rain = 0
KKE1 170601Z 23017KT 16/03 A3003 RMK A01 T01620033  RH  042%=      5-min Rain = 0
KKE1 170602Z 23018KT 16/03 A3003 RMK A01 T01620033  RH  042%=      5-min Rain = 0
KKE1 170603Z 23016KT 16/03 A3003 RMK A01 T01610033  RH  042%=      5-min Rain = 0
KKE1 170604Z 23015G20KT 16/03 A3003 RMK A01 T01610033  RH  042%=      5-min Rain = 0
KKE1 170605Z 23016KT 16/03 A3003 RMK A01 T01600033  RH  043%=      5-min Rain = 0
KKE1 170606Z 23018G23KT 16/03 A3003 RMK A01 T01600033  RH  043%=      5-min Rain = 0
KKE1 170607Z 23018KT 16/03 A3003 RMK A01 T01610033  RH  042%=      5-min Rain = 0
KKE1 170608Z 23016KT 16/03 A3003 RMK A01 T01610033  RH  042%=      5-min Rain = 0
KKE1 170609Z 23017KT 16/03 A3004 RMK A01 T01620034  RH  042%=      5-min Rain = 0
KKE1 170610Z 23017KT 16/03 A3004 RMK A01 T01600033  RH  043%=      5-min Rain = 0
KKE1 170611Z 23017KT 16/03 A3004 RMK A01 T01600033  RH  043%=      5-min Rain = 0
KKE1 170612Z 23016KT 16/03 A3004 RMK A01 T01600033  RH  043%=      5-min Rain = 0
KKE1 170613Z 23017KT 16/03 A3004 RMK A01 T01600032  RH  042%=      5-min Rain = 0
KKE1 170614Z 23017KT 16/03 A3004 RMK A01 T01610033  RH  042%=      5-min Rain = 0
KKE1 170615Z 23017KT 16/03 A3004 RMK A01 T01610033  RH  042%=      5-min Rain = 0
KKE1 170616Z 23017KT 16/03 A3004 RMK A01 T01610032  RH  042%=      5-min Rain = 0
KKE1 170617Z 23016KT 16/03 A3004 RMK A01 T01620032  RH  042%=      5-min Rain = 0
KKE1 170618Z 23013G18KT 16/03 A3004 RMK A01 T01610032  RH  042%=      5-min Rain = 0
KKE1 170619Z 23015KT 16/03 A3004 RMK A01 T01610031  RH  042%=      5-min Rain = 0
KKE1 170620Z 23015G20KT 16/03 A3004 RMK A01 T01610032  RH  042%=      5-min Rain = 0
KKE1 170621Z 23018KT 16/03 A3004 RMK A01 T01600031  RH  042%=      5-min Rain = 0
KKE1 170622Z 23017KT 16/03 A3004 RMK A01 T01610031  RH  042%=      5-min Rain = 0
KKE1 170623Z 23018KT 16/03 A3004 RMK A01 T01610031  RH  042%=      5-min Rain = 0
KKE1 170624Z 23017KT 16/03 A3004 RMK A01 T01620031  RH  041%=      5-min Rain = 0
KKE1 170625Z 23019KT 16/03 A3004 RMK A01 T01630030  RH  041%=      5-min Rain = 0
KKE1 170626Z 23016KT 16/03 A3004 RMK A01 T01630031  RH  041%=      5-min Rain = 0
KKE1 170627Z 23016G21KT 16/03 A3004 RMK A01 T01630031  RH  041%=      5-min Rain = 0
KKE1 170628Z 23016KT 16/03 A3004 RMK A01 T01620031  RH  041%=      5-min Rain = 0
KKE1 170629Z 23018KT 16/03 A3004 RMK A01 T01620030  RH  041%=      5-min Rain = 0
KKE1 170630Z 23019KT 16/03 A3004 RMK A01 T01620030  RH  041%=      5-min Rain = 0
KKE1 170631Z 23017KT 16/03 A3004 RMK A01 T01620031  RH  041%=      5-min Rain = 0
KKE1 170632Z 23015KT 16/03 A3004 RMK A01 T01610031  RH  042%=      5-min Rain = 0
KKE1 170633Z 24014KT 16/03 A3004 RMK A01 T01610031  RH  042%=      5-min Rain = 0
KKE1 170634Z 23015KT 16/03 A3004 RMK A01 T01590031  RH  042%=      5-min Rain = 0
KKE1 170635Z 23019KT 16/03 A3004 RMK A01 T01590031  RH  042%=      5-min Rain = 0
KKE1 170636Z 23016G21KT 16/03 A3004 RMK A01 T01600030  RH  042%=      5-min Rain = 0
KKE1 170637Z 23016KT 16/03 A3004 RMK A01 T01600030  RH  042%=      5-min Rain = 0
KKE1 170638Z 23016KT 16/03 A3004 RMK A01 T01600030  RH  042%=      5-min Rain = 0
KKE1 170639Z 23018KT 16/03 A3004 RMK A01 T01600030  RH  042%=      5-min Rain = 0
KKE1 170640Z 23018KT 16/03 A3004 RMK A01 T01600030  RH  042%=      5-min Rain = 0
KKE1 170641Z 23017KT 16/03 A3004 RMK A01 T01600030  RH  042%=      5-min Rain = 0
KKE1 170642Z 23016KT 16/03 A3004 RMK A01 T01590030  RH  042%=      5-min Rain = 0
KKE1 170643Z 23016G21KT 16/03 A3004 RMK A01 T01590030  RH  042%=      5-min Rain = 0
KKE1 170644Z 23015KT 16/03 A3004 RMK A01 T01580029  RH  042%=      5-min Rain = 0
KKE1 170645Z 23016KT 16/03 A3004 RMK A01 T01570029  RH  042%=      5-min Rain = 0
KKE1 170646Z 23015KT 16/03 A3004 RMK A01 T01580029  RH  042%=      5-min Rain = 0
KKE1 170647Z 23016KT 16/03 A3004 RMK A01 T01580029  RH  042%=      5-min Rain = 0
KKE1 170648Z 23017KT 16/03 A3004 RMK A01 T01580029  RH  042%=      5-min Rain = 0
KKE1 170649Z 23017KT 16/03 A3004 RMK A01 T01580029  RH  042%=      5-min Rain = 0
KKE1 170650Z 23018KT 16/03 A3004 RMK A01 T01590028  RH  042%=      5-min Rain = 0
KKE1 170651Z 23016KT 16/03 A3004 RMK A01 T01590028  RH  041%=      5-min Rain = 0
KKE1 170652Z 23015KT 16/03 A3004 RMK A01 T01590028  RH  041%=      5-min Rain = 0
KKE1 170653Z 23016G22KT 16/03 A3004 RMK A01 T01580028  RH  042%=      5-min Rain = 0
KKE1 170654Z 23015G21KT 16/03 A3004 RMK A01 T01580027  RH  041%=      5-min Rain = 0
KKE1 170655Z 23017KT 16/03 A3004 RMK A01 T01590026  RH  041%=      5-min Rain = 0
KKE1 170656Z 23016G21KT 16/03 A3004 RMK A01 T01590026  RH  041%=      5-min Rain = 0
KKE1 170657Z 24016KT 16/03 A3004 RMK A01 T01590026  RH  041%=      5-min Rain = 0
KKE1 170658Z 24015KT 16/03 A3004 RMK A01 T01590026  RH  041%=      5-min Rain = 0
KKE1 170659Z 23016KT 16/03 A3004 RMK A01 T01580026  RH  041%=      5-min Rain = 0
KKE1 170700Z 24014KT 16/03 A3004 RMK A01 T01580026  RH  041%=      5-min Rain = 0
KKE1 170701Z 23014KT 16/03 A3004 RMK A01 T01570025  RH  041%=      5-min Rain = 0
KKE1 170702Z 23016KT 16/03 A3004 RMK A01 T01570025  RH  041%=      5-min Rain = 0
KKE1 170703Z 24015KT 16/03 A3005 RMK A01 T01570025  RH  041%=      5-min Rain = 0
KKE1 170704Z 23017KT 16/03 A3005 RMK A01 T01580025  RH  041%=      5-min Rain = 0
KKE1 170705Z 23016KT 16/02 A3005 RMK A01 T01580024  RH  040%=      5-min Rain = 0
KKE1 170706Z 23017KT 16/02 A3005 RMK A01 T01590024  RH  040%=      5-min Rain = 0
KKE1 170707Z 23018KT 16/02 A3005 RMK A01 T01600023  RH  040%=      5-min Rain = 0
KKE1 170708Z 23015KT 16/02 A3005 RMK A01 T01600023  RH  040%=      5-min Rain = 0
KKE1 170709Z 24016KT 16/02 A3005 RMK A01 T01600023  RH  040%=      5-min Rain = 0
KKE1 170710Z 23014KT 16/02 A3005 RMK A01 T01600023  RH  040%=      5-min Rain = 0
KKE1 170711Z 23013KT 16/02 A3005 RMK A01 T01580023  RH  040%=      5-min Rain = 0
KKE1 170712Z 24013KT 16/02 A3005 RMK A01 T01570022  RH  040%=      5-min Rain = 0
KKE1 170713Z 23014G20KT 16/02 A3005 RMK A01 T01560023  RH  040%=      5-min Rain = 0
KKE1 170714Z 23015KT 16/02 A3005 RMK A01 T01560022  RH  040%=      5-min Rain = 0
KKE1 170715Z 24016KT 16/02 A3005 RMK A01 T01570022  RH  040%=      5-min Rain = 0
KKE1 170716Z 23015KT 16/02 A3005 RMK A01 T01580022  RH  040%=      5-min Rain = 0
KKE1 170717Z 23015KT 16/02 A3005 RMK A01 T01580022  RH  040%=      5-min Rain = 0
KKE1 170718Z 23014KT 16/02 A3005 RMK A01 T01590022  RH  040%=      5-min Rain = 0
KKE1 170719Z 23014KT 16/02 A3005 RMK A01 T01590022  RH  040%=      5-min Rain = 0
KKE1 170720Z 23016KT 16/02 A3005 RMK A01 T01580021  RH  040%=      5-min Rain = 0
KKE1 170721Z 23015KT 16/02 A3005 RMK A01 T01580021  RH  040%=      5-min Rain = 0
KKE1 170722Z 23015KT 16/02 A3005 RMK A01 T01580020  RH  039%=      5-min Rain = 0
KKE1 170723Z 24014G19KT 16/02 A3005 RMK A01 T01580020  RH  039%=      5-min Rain = 0
KKE1 170724Z 24013KT 16/02 A3005 RMK A01 T01580020  RH  039%=      5-min Rain = 0
KKE1 170725Z 24013KT 16/02 A3005 RMK A01 T01570020  RH  040%=      5-min Rain = 0
KKE1 170726Z 23015KT 16/02 A3005 RMK A01 T01570020  RH  040%=      5-min Rain = 0
KKE1 170727Z 23015KT 16/02 A3005 RMK A01 T01570020  RH  040%=      5-min Rain = 0
KKE1 170728Z 23016KT 16/02 A3005 RMK A01 T01580020  RH  039%=      5-min Rain = 0
KKE1 170729Z 23015KT 16/02 A3005 RMK A01 T01590019  RH  039%=      5-min Rain = 0
KKE1 170730Z 23017KT 16/02 A3005 RMK A01 T01590019  RH  039%=      5-min Rain = 0
KKE1 170731Z 23017KT 16/02 A3005 RMK A01 T01590018  RH  039%=      5-min Rain = 0
KKE1 170732Z 23018KT 16/02 A3005 RMK A01 T01600018  RH  038%=      5-min Rain = 0
KKE1 170733Z 23018KT 16/02 A3005 RMK A01 T01600018  RH  038%=      5-min Rain = 0
KKE1 170734Z 23018KT 16/02 A3005 RMK A01 T01610018  RH  038%=      5-min Rain = 0
KKE1 170735Z 23018KT 16/02 A3005 RMK A01 T01610018  RH  038%=      5-min Rain = 0
KKE1 170736Z 23015KT 16/02 A3005 RMK A01 T01600017  RH  038%=      5-min Rain = 0
KKE1 170737Z 22016KT 16/02 A3005 RMK A01 T01590017  RH  038%=      5-min Rain = 0
KKE1 170738Z 23015G20KT 16/02 A3005 RMK A01 T01590017  RH  038%=      5-min Rain = 0
KKE1 170739Z 23014G19KT 16/02 A3005 RMK A01 T01590017  RH  038%=      5-min Rain = 0
KKE1 170740Z 23018KT 16/02 A3005 RMK A01 T01590017  RH  038%=      5-min Rain = 0
KKE1 170741Z 23018KT 16/02 A3005 RMK A01 T01590016  RH  038%=      5-min Rain = 0
KKE1 170742Z 22014KT 16/02 A3005 RMK A01 T01590016  RH  038%=      5-min Rain = 0
KKE1 170743Z 23013KT 16/02 A3005 RMK A01 T01580016  RH  038%=      5-min Rain = 0
KKE1 170744Z 23013G20KT 16/02 A3005 RMK A01 T01560015  RH  038%=      5-min Rain = 0
KKE1 170745Z 23013G19KT 16/02 A3005 RMK A01 T01560015  RH  038%=      5-min Rain = 0
KKE1 170746Z 24013KT 16/02 A3005 RMK A01 T01580015  RH  038%=      5-min Rain = 0
KKE1 170747Z 24013KT 16/02 A3005 RMK A01 T01560015  RH  038%=      5-min Rain = 0
KKE1 170748Z 23014KT 16/01 A3005 RMK A01 T01550014  RH  039%=      5-min Rain = 0
KKE1 170749Z 23013KT 16/01 A3005 RMK A01 T01550014  RH  039%=      5-min Rain = 0
KKE1 170750Z 23015KT 16/01 A3005 RMK A01 T01550014  RH  038%=      5-min Rain = 0
KKE1 170751Z 23015KT 16/01 A3005 RMK A01 T01560014  RH  038%=      5-min Rain = 0
KKE1 170752Z 23016G21KT 16/01 A3005 RMK A01 T01580014  RH  038%=      5-min Rain = 0
KKE1 170753Z 23014KT 16/01 A3005 RMK A01 T01590013  RH  037%=      5-min Rain = 0
KKE1 170754Z 23015KT 16/01 A3006 RMK A01 T01580013  RH  037%=      5-min Rain = 0
KKE1 170755Z 23016KT 16/01 A3006 RMK A01 T01570012  RH  038%=      5-min Rain = 0
KKE1 170756Z 23015KT 16/01 A3005 RMK A01 T01570012  RH  037%=      5-min Rain = 0
KKE1 170757Z 23015KT 16/01 A3005 RMK A01 T01570012  RH  037%=      5-min Rain = 0
KKE1 170758Z 23013KT 16/01 A3005 RMK A01 T01580012  RH  037%=      5-min Rain = 0
KKE1 170759Z 23013G18KT 16/01 A3005 RMK A01 T01570012  RH  037%=      5-min Rain = 0
KKE1 170800Z 24014KT 16/01 A3005 RMK A01 T01570011  RH  037%=      5-min Rain = 0
KKE1 170801Z 24014KT 16/01 A3006 RMK A01 T01580012  RH  037%=      5-min Rain = 0
KKE1 170802Z 24015KT 16/01 A3006 RMK A01 T01580011  RH  037%=      5-min Rain = 0
KKE1 170803Z 24013KT 16/01 A3006 RMK A01 T01580011  RH  037%=      5-min Rain = 0
KKE1 170804Z 23015KT 16/01 A3006 RMK A01 T01570010  RH  037%=      5-min Rain = 0
KKE1 170805Z 23014KT 16/01 A3006 RMK A01 T01580010  RH  037%=      5-min Rain = 0
KKE1 170806Z 23015KT 16/01 A3006 RMK A01 T01590010  RH  036%=      5-min Rain = 0
KKE1 170807Z 24013KT 16/01 A3006 RMK A01 T01600010  RH  036%=      5-min Rain = 0
KKE1 170808Z 25011KT 16/01 A3006 RMK A01 T01590010  RH  036%=      5-min Rain = 0
KKE1 170809Z 24011KT 16/01 A3006 RMK A01 T01580010  RH  036%=      5-min Rain = 0
KKE1 170810Z 23012KT 16/01 A3006 RMK A01 T01570008  RH  036%=      5-min Rain = 0
KKE1 170811Z 24012KT 16/01 A3006 RMK A01 T01570008  RH  036%=      5-min Rain = 0
KKE1 170812Z 24011KT 16/01 A3006 RMK A01 T01570008  RH  036%=      5-min Rain = 0
KKE1 170813Z 24012KT 16/01 A3006 RMK A01 T01560008  RH  037%=      5-min Rain = 0
KKE1 170814Z 25013KT 16/01 A3006 RMK A01 T01550008  RH  037%=      5-min Rain = 0
KKE1 170815Z 25011KT 16/01 A3006 RMK A01 T01550008  RH  037%=      5-min Rain = 0
KKE1 170816Z 25011KT 16/01 A3006 RMK A01 T01550008  RH  037%=      5-min Rain = 0
KKE1 170817Z 26011KT 15/01 A3006 RMK A01 T01530009  RH  037%=      5-min Rain = 0
KKE1 170818Z 26011KT 15/01 A3007 RMK A01 T01510009  RH  038%=      5-min Rain = 0
KKE1 170819Z 25012KT 15/01 A3007 RMK A01 T01490009  RH  039%=      5-min Rain = 0
KKE1 170820Z 24012KT 15/01 A3006 RMK A01 T01490009  RH  038%=      5-min Rain = 0
KKE1 170821Z 24012KT 15/01 A3006 RMK A01 T01490008  RH  038%=      5-min Rain = 0
KKE1 170822Z 25012KT 15/01 A3006 RMK A01 T01490008  RH  038%=      5-min Rain = 0
KKE1 170823Z 24014KT 15/01 A3006 RMK A01 T01500008  RH  038%=      5-min Rain = 0
KKE1 170824Z 24014KT 15/01 A3006 RMK A01 T01520008  RH  037%=      5-min Rain = 0
KKE1 170825Z 25012KT 15/01 A3007 RMK A01 T01530008  RH  037%=      5-min Rain = 0
KKE1 170826Z 26011KT 15/01 A3007 RMK A01 T01520008  RH  037%=      5-min Rain = 0
KKE1 170827Z 26012KT 15/01 A3007 RMK A01 T01500008  RH  038%=      5-min Rain = 0
KKE1 170828Z 25012KT 15/01 A3007 RMK A01 T01480008  RH  039%=      5-min Rain = 0
KKE1 170829Z 25010KT 15/01 A3007 RMK A01 T01470008  RH  039%=      5-min Rain = 0
KKE1 170830Z 26010KT 15/01 A3007 RMK A01 T01470008  RH  039%=      5-min Rain = 0
KKE1 170831Z 26011KT 15/01 A3007 RMK A01 T01470009  RH  039%=      5-min Rain = 0
KKE1 170832Z 26013KT 15/01 A3007 RMK A01 T01460009  RH  039%=      5-min Rain = 0
KKE1 170833Z 25011KT 15/01 A3006 RMK A01 T01450009  RH  040%=      5-min Rain = 0
KKE1 170834Z 26012KT 15/01 A3006 RMK A01 T01450010  RH  040%=      5-min Rain = 0
KKE1 170835Z 26012KT 14/01 A3006 RMK A01 T01440010  RH  040%=      5-min Rain = 0
KKE1 170836Z 26010KT 15/01 A3006 RMK A01 T01460010  RH  040%=      5-min Rain = 0
KKE1 170837Z 25010KT 15/01 A3006 RMK A01 T01470010  RH  039%=      5-min Rain = 0
KKE1 170838Z 24012KT 15/01 A3006 RMK A01 T01480010  RH  039%=      5-min Rain = 0
KKE1 170839Z 25011KT 15/01 A3006 RMK A01 T01500009  RH  038%=      5-min Rain = 0
KKE1 170840Z 25014KT 15/01 A3006 RMK A01 T01500010  RH  038%=      5-min Rain = 0
KKE1 170841Z 25014KT 15/01 A3006 RMK A01 T01490010  RH  039%=      5-min Rain = 0
KKE1 170842Z 25013KT 15/01 A3006 RMK A01 T01490011  RH  039%=      5-min Rain = 0
KKE1 170843Z 24012KT 15/01 A3006 RMK A01 T01490011  RH  039%=      5-min Rain = 0
KKE1 170844Z 24012KT 15/01 A3006 RMK A01 T01480010  RH  039%=      5-min Rain = 0
KKE1 170845Z 24014KT 15/01 A3006 RMK A01 T01520010  RH  038%=      5-min Rain = 0
KKE1 170846Z 24012KT 16/01 A3006 RMK A01 T01560010  RH  037%=      5-min Rain = 0
KKE1 170847Z 24018G23KT 16/01 A3006 RMK A01 T01570009  RH  036%=      5-min Rain = 0
KKE1 170848Z 24015KT 16/01 A3006 RMK A01 T01610007  RH  035%=      5-min Rain = 0
KKE1 170849Z 25012KT 16/01 A3006 RMK A01 T01640007  RH  034%=      5-min Rain = 0
KKE1 170850Z 25011KT 16/01 A3006 RMK A01 T01630006  RH  034%=      5-min Rain = 0
KKE1 170851Z 25012KT 16/01 A3006 RMK A01 T01610006  RH  035%=      5-min Rain = 0
KKE1 170852Z 24013KT 16/01 A3006 RMK A01 T01590007  RH  036%=      5-min Rain = 0
KKE1 170853Z 24014KT 16/01 A3006 RMK A01 T01580008  RH  036%=      5-min Rain = 0
KKE1 170854Z 24014KT 16/01 A3006 RMK A01 T01570008  RH  036%=      5-min Rain = 0
KKE1 170855Z 24016KT 16/01 A3006 RMK A01 T01550008  RH  037%=      5-min Rain = 0
KKE1 170856Z 24013G18KT 16/01 A3006 RMK A01 T01560008  RH  037%=      5-min Rain = 0
KKE1 170857Z 24010KT 16/01 A3006 RMK A01 T01560008  RH  037%=      5-min Rain = 0
KKE1 170858Z 26014KT 15/01 A3006 RMK A01 T01530009  RH  037%=      5-min Rain = 0
KKE1 170859Z 25012KT 15/01 A3006 RMK A01 T01520010  RH  038%=      5-min Rain = 0
KKE1 170900Z 24011G17KT 15/01 A3006 RMK A01 T01520009  RH  038%=      5-min Rain = 0
KKE1 170901Z 25014KT 15/01 A3006 RMK A01 T01530009  RH  038%=      5-min Rain = 0
KKE1 170902Z 24011KT 16/01 A3006 RMK A01 T01550009  RH  037%=      5-min Rain = 0
KKE1 170903Z 24013G18KT 16/01 A3006 RMK A01 T01560008  RH  037%=      5-min Rain = 0
KKE1 170904Z 25012KT 16/01 A3006 RMK A01 T01580009  RH  036%=      5-min Rain = 0
KKE1 170905Z 25012KT 16/01 A3006 RMK A01 T01570009  RH  037%=      5-min Rain = 0
KKE1 170906Z 25013G18KT 16/01 A3006 RMK A01 T01550009  RH  037%=      5-min Rain = 0
KKE1 170907Z 24016KT 15/01 A3006 RMK A01 T01540009  RH  037%=      5-min Rain = 0
KKE1 170908Z 25014G19KT 16/01 A3006 RMK A01 T01570010  RH  037%=      5-min Rain = 0
KKE1 170909Z 25011KT 16/01 A3006 RMK A01 T01570010  RH  037%=      5-min Rain = 0
KKE1 170910Z 25012KT 15/01 A3006 RMK A01 T01530010  RH  038%=      5-min Rain = 0
KKE1 170911Z 25013KT 15/01 A3006 RMK A01 T01500010  RH  038%=      5-min Rain = 0
KKE1 170912Z 25014KT 15/01 A3006 RMK A01 T01510009  RH  038%=      5-min Rain = 0
KKE1 170913Z 25014KT 15/01 A3006 RMK A01 T01520009  RH  038%=      5-min Rain = 0
KKE1 170914Z 25012KT 15/01 A3006 RMK A01 T01520010  RH  038%=      5-min Rain = 0
KKE1 170915Z 25012KT 15/01 A3006 RMK A01 T01510010  RH  038%=      5-min Rain = 0
KKE1 170916Z 24013KT 15/01 A3007 RMK A01 T01500010  RH  039%=      5-min Rain = 0
KKE1 170917Z 24013G18KT 15/01 A3006 RMK A01 T01490010  RH  039%=      5-min Rain = 0
KKE1 170918Z 25012KT 15/01 A3007 RMK A01 T01490010  RH  039%=      5-min Rain = 0
KKE1 170919Z 26014KT 15/01 A3007 RMK A01 T01490010  RH  039%=      5-min Rain = 0
KKE1 170920Z 25015KT 15/01 A3007 RMK A01 T01500010  RH  038%=      5-min Rain = 0
KKE1 170921Z 26013KT 15/01 A3007 RMK A01 T01510010  RH  038%=      5-min Rain = 0
KKE1 170922Z 25013KT 15/01 A3007 RMK A01 T01500010  RH  038%=      5-min Rain = 0
KKE1 170923Z 25013KT 15/01 A3007 RMK A01 T01480010  RH  039%=      5-min Rain = 0
KKE1 170924Z 25014KT 15/01 A3007 RMK A01 T01470010  RH  039%=      5-min Rain = 0
KKE1 170925Z 25014KT 15/01 A3007 RMK A01 T01470011  RH  039%=      5-min Rain = 0
KKE1 170926Z 25013KT 15/01 A3007 RMK A01 T01470011  RH  040%=      5-min Rain = 0
KKE1 170927Z 25013KT 15/01 A3007 RMK A01 T01470011  RH  039%=      5-min Rain = 0
KKE1 170928Z 25012KT 15/01 A3007 RMK A01 T01480010  RH  039%=      5-min Rain = 0
KKE1 170929Z 25013KT 15/01 A3007 RMK A01 T01480010  RH  039%=      5-min Rain = 0
KKE1 170930Z 25014KT 15/01 A3007 RMK A01 T01480010  RH  039%=      5-min Rain = 0
KKE1 170931Z 24013KT 15/01 A3007 RMK A01 T01480010  RH  039%=      5-min Rain = 0
KKE1 170932Z 25012KT 15/01 A3007 RMK A01 T01480009  RH  039%=      5-min Rain = 0
KKE1 170933Z 24014KT 15/01 A3008 RMK A01 T01470009  RH  039%=      5-min Rain = 0
KKE1 170934Z 24013KT 15/01 A3007 RMK A01 T01460009  RH  039%=      5-min Rain = 0
KKE1 170935Z 23016KT 15/01 A3007 RMK A01 T01470008  RH  039%=      5-min Rain = 0
KKE1 170936Z 24013KT 15/01 A3007 RMK A01 T01520008  RH  038%=      5-min Rain = 0
KKE1 170937Z 23014KT 15/01 A3007 RMK A01 T01520008  RH  038%=      5-min Rain = 0
KKE1 170938Z 24013KT 15/01 A3007 RMK A01 T01500008  RH  038%=      5-min Rain = 0
KKE1 170939Z 24016KT 15/01 A3008 RMK A01 T01490008  RH  038%=      5-min Rain = 0
KKE1 170940Z 24015KT 15/01 A3007 RMK A01 T01500008  RH  038%=      5-min Rain = 0
KKE1 170941Z 23016KT 15/01 A3007 RMK A01 T01510008  RH  038%=      5-min Rain = 0
KKE1 170942Z 23017KT 15/01 A3007 RMK A01 T01530007  RH  037%=      5-min Rain = 0
KKE1 170943Z 24015KT 16/01 A3007 RMK A01 T01550008  RH  037%=      5-min Rain = 0
KKE1 170944Z 25014KT 15/01 A3008 RMK A01 T01540008  RH  037%=      5-min Rain = 0
KKE1 170945Z 25014KT 15/01 A3008 RMK A01 T01510008  RH  038%=      5-min Rain = 0
KKE1 170946Z 25014KT 15/01 A3008 RMK A01 T01490009  RH  038%=      5-min Rain = 0
KKE1 170947Z 25012KT 15/01 A3008 RMK A01 T01490009  RH  039%=      5-min Rain = 0
KKE1 170948Z 26014KT 15/01 A3008 RMK A01 T01470009  RH  039%=      5-min Rain = 0
KKE1 170949Z 26014KT 15/01 A3008 RMK A01 T01470009  RH  039%=      5-min Rain = 0
KKE1 170950Z 26014KT 15/01 A3008 RMK A01 T01470010  RH  039%=      5-min Rain = 0
KKE1 170951Z 25014KT 15/01 A3008 RMK A01 T01470009  RH  039%=      5-min Rain = 0
KKE1 170952Z 25015KT 15/01 A3008 RMK A01 T01480009  RH  039%=      5-min Rain = 0
KKE1 170953Z 26013KT 15/01 A3008 RMK A01 T01490008  RH  038%=      5-min Rain = 0
KKE1 170954Z 25013KT 15/01 A3008 RMK A01 T01480009  RH  039%=      5-min Rain = 0
KKE1 170955Z 25014KT 15/01 A3008 RMK A01 T01460008  RH  039%=      5-min Rain = 0
KKE1 170956Z 26013KT 15/01 A3008 RMK A01 T01470008  RH  039%=      5-min Rain = 0
KKE1 170957Z 26012KT 15/01 A3008 RMK A01 T01480008  RH  038%=      5-min Rain = 0
KKE1 170958Z 25012KT 15/01 A3008 RMK A01 T01480008  RH  039%=      5-min Rain = 0
KKE1 170959Z 24013KT 15/01 A3008 RMK A01 T01460009  RH  039%=      5-min Rain = 0
KKE1 171000Z 24014KT 15/01 A3008 RMK A01 T01460008  RH  039%=      5-min Rain = 0
KKE1 171001Z 24012KT 15/01 A3008 RMK A01 T01460008  RH  039%=      5-min Rain = 0
KKE1 171002Z 24011KT 15/01 A3008 RMK A01 T01470007  RH  038%=      5-min Rain = 0
KKE1 171003Z 24010KT 15/01 A3008 RMK A01 T01480007  RH  038%=      5-min Rain = 0
KKE1 171004Z 24013KT 15/01 A3008 RMK A01 T01470006  RH  038%=      5-min Rain = 0
KKE1 171005Z 24012KT 15/01 A3009 RMK A01 T01490006  RH  038%=      5-min Rain = 0
KKE1 171006Z 24011KT 15/01 A3009 RMK A01 T01490005  RH  037%=      5-min Rain = 0
KKE1 171007Z 25010KT 15/00 A3009 RMK A01 T01500004  RH  037%=      5-min Rain = 0
KKE1 171008Z 24010KT 15/00 A3009 RMK A01 T01500004  RH  037%=      5-min Rain = 0
KKE1 171009Z 24012KT 15/00 A3009 RMK A01 T01510003  RH  037%=      5-min Rain = 0
KKE1 171010Z 24011KT 15/00 A3009 RMK A01 T01510003  RH  037%=      5-min Rain = 0
KKE1 171011Z 25012KT 15/00 A3009 RMK A01 T01500004  RH  037%=      5-min Rain = 0
KKE1 171012Z 25012KT 15/00 A3009 RMK A01 T01500004  RH  037%=      5-min Rain = 0
KKE1 171013Z 25012KT 15/01 A3009 RMK A01 T01490005  RH  037%=      5-min Rain = 0
KKE1 171014Z 24013KT 15/01 A3009 RMK A01 T01490005  RH  037%=      5-min Rain = 0
KKE1 171015Z 25012KT 15/01 A3009 RMK A01 T01480005  RH  038%=      5-min Rain = 0
KKE1 171016Z 25011KT 15/01 A3009 RMK A01 T01480005  RH  038%=      5-min Rain = 0
KKE1 171017Z 26010KT 15/01 A3009 RMK A01 T01480005  RH  038%=      5-min Rain = 0
KKE1 171018Z 27009KT 15/01 A3009 RMK A01 T01460005  RH  038%=      5-min Rain = 0
KKE1 171019Z 26009KT 14/01 A3009 RMK A01 T01440005  RH  039%=      5-min Rain = 0
KKE1 171020Z 26009KT 14/01 A3009 RMK A01 T01430005  RH  039%=      5-min Rain = 0
KKE1 171021Z 26009KT 14/01 A301 RMK A01 T01420005  RH  039%=      5-min Rain = 0
KKE1 171022Z 27011KT 14/01 A301 RMK A01 T01420005  RH  039%=      5-min Rain = 0
KKE1 171023Z 26010KT 14/01 A301 RMK A01 T01420005  RH  039%=      5-min Rain = 0
KKE1 171024Z 26012KT 14/00 A301 RMK A01 T01430004  RH  039%=      5-min Rain = 0
KKE1 171025Z 26010KT 14/00 A301 RMK A01 T01430004  RH  039%=      5-min Rain = 0
KKE1 171026Z 26013KT 14/00 A301 RMK A01 T01430004  RH  039%=      5-min Rain = 0
KKE1 171027Z 26011KT 14/00 A301 RMK A01 T01430004  RH  039%=      5-min Rain = 0
KKE1 171028Z 26012KT 14/01 A301 RMK A01 T01430005  RH  039%=      5-min Rain = 0
KKE1 171029Z 26012KT 14/01 A301 RMK A01 T01430005  RH  039%=      5-min Rain = 0
KKE1 171030Z 27012KT 14/01 A301 RMK A01 T01440005  RH  039%=      5-min Rain = 0
KKE1 171031Z 27014KT 15/01 A301 RMK A01 T01450006  RH  039%=      5-min Rain = 0
KKE1 171032Z 27015KT 15/01 A301 RMK A01 T01470005  RH  038%=      5-min Rain = 0
KKE1 171033Z 27013KT 15/01 A301 RMK A01 T01500005  RH  037%=      5-min Rain = 0
KKE1 171034Z 27013KT 15/01 A301 RMK A01 T01510005  RH  037%=      5-min Rain = 0
KKE1 171035Z 26014KT 15/00 A301 RMK A01 T01520004  RH  037%=      5-min Rain = 0
KKE1 171036Z 26014KT 15/00 A301 RMK A01 T01520003  RH  036%=      5-min Rain = 0
KKE1 171037Z 26014KT 15/00 A301 RMK A01 T01530003  RH  036%=      5-min Rain = 0
KKE1 171038Z 26013KT 15/00 A301 RMK A01 T01530003  RH  036%=      5-min Rain = 0
KKE1 171039Z 26011KT 15/00 A301 RMK A01 T01520003  RH  036%=      5-min Rain = 0
KKE1 171040Z 25010KT 15/00 A301 RMK A01 T01500003  RH  037%=      5-min Rain = 0
KKE1 171041Z 25012G17KT 15/00 A301 RMK A01 T01480003  RH  037%=      5-min Rain = 0
KKE1 171042Z 25015KT 15/00 A301 RMK A01 T01480002  RH  037%=      5-min Rain = 0
KKE1 171043Z 25013KT 15/00 A301 RMK A01 T01490002  RH  037%=      5-min Rain = 0
KKE1 171044Z 25012KT 15/00 A301 RMK A01 T01480003  RH  037%=      5-min Rain = 0
KKE1 171045Z 25012KT 15/00 A301 RMK A01 T01470003  RH  037%=      5-min Rain = 0
KKE1 171046Z 25012KT 15/00 A301 RMK A01 T01470004  RH  038%=      5-min Rain = 0
KKE1 171047Z 25011KT 15/00 A301 RMK A01 T01460004  RH  038%=      5-min Rain = 0
KKE1 171048Z 25011KT 15/00 A301 RMK A01 T01460004  RH  038%=      5-min Rain = 0
KKE1 171049Z 25012KT 15/00 A301 RMK A01 T01450004  RH  038%=      5-min Rain = 0
KKE1 171050Z 25012KT 14/00 A301 RMK A01 T01430004  RH  038%=      5-min Rain = 0
KKE1 171051Z 25013KT 14/00 A301 RMK A01 T01430004  RH  039%=      5-min Rain = 0
KKE1 171052Z 25012KT 14/00 A301 RMK A01 T01420004  RH  039%=      5-min Rain = 0
KKE1 171053Z 26013KT 14/00 A301 RMK A01 T01420004  RH  039%=      5-min Rain = 0
KKE1 171054Z 26012KT 14/01 A301 RMK A01 T01420005  RH  039%=      5-min Rain = 0
KKE1 171055Z 26012KT 14/01 A301 RMK A01 T01420005  RH  039%=      5-min Rain = 0
KKE1 171056Z 26011KT 14/01 A301 RMK A01 T01420005  RH  039%=      5-min Rain = 0
KKE1 171057Z 25012KT 14/01 A301 RMK A01 T01420005  RH  039%=      5-min Rain = 0
KKE1 171058Z 25012KT 14/01 A301 RMK A01 T01420005  RH  039%=      5-min Rain = 0
KKE1 171059Z 25013KT 14/01 A301 RMK A01 T01400005  RH  040%=      5-min Rain = 0
KKE1 171100Z 24012KT 14/01 A301 RMK A01 T01400006  RH  040%=      5-min Rain = 0
KKE1 171101Z 24013KT 14/01 A301 RMK A01 T01400006  RH  040%=      5-min Rain = 0
KKE1 171102Z 24011KT 14/01 A301 RMK A01 T01400006  RH  040%=      5-min Rain = 0
KKE1 171103Z 24013KT 14/01 A301 RMK A01 T01400006  RH  040%=      5-min Rain = 0
KKE1 171104Z 24014KT 14/01 A301 RMK A01 T01390006  RH  040%=      5-min Rain = 0
KKE1 171105Z 24014KT 14/01 A301 RMK A01 T01390006  RH  040%=      5-min Rain = 0
KKE1 171106Z 24015KT 14/01 A301 RMK A01 T01400007  RH  040%=      5-min Rain = 0
KKE1 171107Z 24014KT 14/01 A301 RMK A01 T01400008  RH  041%=      5-min Rain = 0
KKE1 171108Z 25012KT 14/01 A301 RMK A01 T01400009  RH  041%=      5-min Rain = 0
KKE1 171109Z 25012KT 14/01 A301 RMK A01 T01390009  RH  041%=      5-min Rain = 0
KKE1 171110Z 25012KT 14/01 A3009 RMK A01 T01380009  RH  041%=      5-min Rain = 0
KKE1 171111Z 24012KT 14/01 A3009 RMK A01 T01370009  RH  042%=      5-min Rain = 0
KKE1 171112Z 24012KT 14/01 A3009 RMK A01 T01370010  RH  042%=      5-min Rain = 0
KKE1 171113Z 24012KT 14/01 A3009 RMK A01 T01370010  RH  042%=      5-min Rain = 0
KKE1 171114Z 24012KT 14/01 A3009 RMK A01 T01370010  RH  042%=      5-min Rain = 0
KKE1 171115Z 24013KT 14/01 A3009 RMK A01 T01370011  RH  042%=      5-min Rain = 0
KKE1 171116Z 23016KT 14/01 A3009 RMK A01 T01370011  RH  042%=      5-min Rain = 0
KKE1 171117Z 24016KT 14/01 A3009 RMK A01 T01390012  RH  042%=      5-min Rain = 0
KKE1 171118Z 23015KT 14/01 A3009 RMK A01 T01410012  RH  042%=      5-min Rain = 0
KKE1 171119Z 23018KT 14/01 A3009 RMK A01 T01410012  RH  041%=      5-min Rain = 0
KKE1 171120Z 23018KT 14/01 A3009 RMK A01 T01430013  RH  041%=      5-min Rain = 0
KKE1 171121Z 23017KT 14/01 A3009 RMK A01 T01430013  RH  041%=      5-min Rain = 0
KKE1 171122Z 23019KT 14/01 A3009 RMK A01 T01440013  RH  041%=      5-min Rain = 0
KKE1 171123Z 23018KT 15/01 A3009 RMK A01 T01470014  RH  041%=      5-min Rain = 0
KKE1 171124Z 22018KT 15/02 A3009 RMK A01 T01470015  RH  041%=      5-min Rain = 0
KKE1 171125Z 23018KT 15/02 A3009 RMK A01 T01470017  RH  041%=      5-min Rain = 0
KKE1 171126Z 22018KT 15/02 A3009 RMK A01 T01480017  RH  041%=      5-min Rain = 0
KKE1 171127Z 23017KT 15/02 A3009 RMK A01 T01490017  RH  041%=      5-min Rain = 0
KKE1 171128Z 23019KT 15/02 A3009 RMK A01 T01500017  RH  041%=      5-min Rain = 0
KKE1 171129Z 23020KT 15/02 A3009 RMK A01 T01490017  RH  041%=      5-min Rain = 0
KKE1 171130Z 23016KT 15/02 A3009 RMK A01 T01470017  RH  041%=      5-min Rain = 0
KKE1 171131Z 23018KT 15/02 A3009 RMK A01 T01460018  RH  042%=      5-min Rain = 0
KKE1 171132Z 23018KT 15/02 A3009 RMK A01 T01470018  RH  042%=      5-min Rain = 0
KKE1 171133Z 23018KT 15/02 A3009 RMK A01 T01470018  RH  042%=      5-min Rain = 0
KKE1 171134Z 23017KT 15/02 A3009 RMK A01 T01460018  RH  042%=      5-min Rain = 0
KKE1 171135Z 23017KT 15/02 A3009 RMK A01 T01450018  RH  042%=      5-min Rain = 0
KKE1 171136Z 22017KT 15/02 A3009 RMK A01 T01470018  RH  042%=      5-min Rain = 0
KKE1 171137Z 23018KT 15/02 A3009 RMK A01 T01480018  RH  041%=      5-min Rain = 0
KKE1 171138Z 23018KT 15/02 A3009 RMK A01 T01480019  RH  042%=      5-min Rain = 0
KKE1 171139Z 22016KT 15/02 A3009 RMK A01 T01470019  RH  042%=      5-min Rain = 0
KKE1 171140Z 23015KT 15/02 A3009 RMK A01 T01470018  RH  042%=      5-min Rain = 0
KKE1 171141Z 23014KT 15/02 A301 RMK A01 T01460018  RH  042%=      5-min Rain = 0
KKE1 171142Z 23015KT 14/02 A301 RMK A01 T01440018  RH  042%=      5-min Rain = 0
KKE1 171143Z 24016KT 14/02 A301 RMK A01 T01440018  RH  042%=      5-min Rain = 0
KKE1 171144Z 24015KT 14/02 A301 RMK A01 T01430019  RH  043%=      5-min Rain = 0
KKE1 171145Z 23016KT 14/02 A301 RMK A01 T01420018  RH  043%=      5-min Rain = 0
KKE1 171146Z 24014KT 14/02 A301 RMK A01 T01430019  RH  043%=      5-min Rain = 0
KKE1 171147Z 24014KT 14/02 A301 RMK A01 T01420019  RH  043%=      5-min Rain = 0
KKE1 171148Z 23014KT 14/02 A301 RMK A01 T01390020  RH  044%=      5-min Rain = 0
KKE1 171149Z 23016KT 14/02 A301 RMK A01 T01380019  RH  044%=      5-min Rain = 0
KKE1 171150Z 23015KT 14/02 A301 RMK A01 T01410019  RH  044%=      5-min Rain = 0
KKE1 171151Z 22013KT 14/02 A301 RMK A01 T01430018  RH  043%=      5-min Rain = 0
KKE1 171152Z 23012KT 14/02 A301 RMK A01 T01430018  RH  043%=      5-min Rain = 0
KKE1 171153Z 23012KT 14/02 A301 RMK A01 T01430018  RH  043%=      5-min Rain = 0
KKE1 171154Z 23012KT 14/02 A301 RMK A01 T01420016  RH  042%=      5-min Rain = 0
KKE1 171155Z 23014KT 14/02 A301 RMK A01 T01440016  RH  042%=      5-min Rain = 0
KKE1 171156Z 23011KT 14/02 A301 RMK A01 T01440016  RH  042%=      5-min Rain = 0
KKE1 171157Z 23011KT 14/02 A301 RMK A01 T01440016  RH  042%=      5-min Rain = 0
KKE1 171158Z 24012G17KT 15/01 A301 RMK A01 T01450007  RH  039%=      5-min Rain = 0
KKE1 171159Z 25008KT 15/01 A301 RMK A01 T01500010  RH  039%=      5-min Rain = 0
KKE1 171200Z 27008KT 15/01 A3011 RMK A01 T01470012  RH  040%=      5-min Rain = 0
KKE1 171201Z 28009KT 14/01 A3011 RMK A01 T01420014  RH  042%=      5-min Rain = 0
KKE1 171202Z 28009KT 14/02 A3011 RMK A01 T01390015  RH  043%=      5-min Rain = 0
KKE1 171203Z 27010KT 14/02 A3011 RMK A01 T01380015  RH  043%=      5-min Rain = 0
KKE1 171204Z 26008KT 14/02 A3011 RMK A01 T01370015  RH  044%=      5-min Rain = 0
KKE1 171205Z 26011KT 14/01 A3011 RMK A01 T01350014  RH  044%=      5-min Rain = 0
KKE1 171206Z 27009KT 14/02 A3011 RMK A01 T01350015  RH  044%=      5-min Rain = 0
KKE1 171207Z 27011KT 14/02 A3011 RMK A01 T01360015  RH  044%=      5-min Rain = 0
KKE1 171208Z 26010KT 14/01 A3011 RMK A01 T01360014  RH  043%=      5-min Rain = 0
KKE1 171209Z 27012KT 14/01 A3012 RMK A01 T01370014  RH  043%=      5-min Rain = 0
KKE1 171210Z 28011KT 14/01 A3013 RMK A01 T01380014  RH  043%=      5-min Rain = 0
KKE1 171211Z 27007G13KT 14/01 A3012 RMK A01 T01390014  RH  042%=      5-min Rain = 0
KKE1 171212Z 25014KT 14/01 A3012 RMK A01 T01400013  RH  042%=      5-min Rain = 0
KKE1 171213Z 29016G21KT 14/01 A3013 RMK A01 T01430006  RH  039%=      5-min Rain = 0
KKE1 171214Z 29008KT 15/01 A3014 RMK A01 T01510009  RH  038%=      5-min Rain = 0
KKE1 171215Z 32007KT 15/01 A3014 RMK A01 T01500010  RH  038%=      5-min Rain = 0
KKE1 171216Z 31010KT 15/01 A3014 RMK A01 T01470008  RH  039%=      5-min Rain = 0
KKE1 171217Z 31014G19KT 15/01 A3015 RMK A01 T01450007  RH  039%=      5-min Rain = 0
KKE1 171218Z 32015KT 14/01 A3015 RMK A01 T01440006  RH  039%=      5-min Rain = 0
KKE1 171219Z 31015KT 15/01 A3015 RMK A01 T01450007  RH  039%=      5-min Rain = 0
KKE1 171220Z 31014G19KT 14/01 A3015 RMK A01 T01440007  RH  039%=      5-min Rain = 0
KKE1 171221Z 30015KT 14/01 A3015 RMK A01 T01430010  RH  040%=      5-min Rain = 0
KKE1 171222Z 30014KT 14/01 A3015 RMK A01 T01380012  RH  042%=      5-min Rain = 0
KKE1 171223Z 30012KT 13/01 A3016 RMK A01 T01330011  RH  043%=      5-min Rain = 0
KKE1 171224Z 30011G16KT 13/01 A3016 RMK A01 T01300010  RH  044%=      5-min Rain = 0
KKE1 171225Z 29013KT 13/01 A3015 RMK A01 T01280010  RH  044%=      5-min Rain = 0
KKE1 171226Z 29011KT 13/01 A3016 RMK A01 T01280010  RH  045%=      5-min Rain = 0
KKE1 171227Z 28012KT 13/01 A3016 RMK A01 T01270012  RH  045%=      5-min Rain = 0
KKE1 171228Z 28011KT 13/01 A3016 RMK A01 T01260013  RH  046%=      5-min Rain = 0
KKE1 171229Z 28011KT 12/01 A3016 RMK A01 T01240013  RH  047%=      5-min Rain = 0
KKE1 171230Z 28010KT 12/01 A3016 RMK A01 T01230014  RH  047%=      5-min Rain = 0
KKE1 171231Z 29010KT 12/01 A3016 RMK A01 T01220014  RH  048%=      5-min Rain = 0
KKE1 171232Z 29010KT 12/01 A3016 RMK A01 T01210013  RH  048%=      5-min Rain = 0
KKE1 171233Z 29010KT 12/01 A3017 RMK A01 T01200013  RH  048%=      5-min Rain = 0
KKE1 171234Z 29010KT 12/01 A3016 RMK A01 T01200011  RH  047%=      5-min Rain = 0
KKE1 171235Z 29009KT 12/01 A3017 RMK A01 T01190010  RH  047%=      5-min Rain = 0
KKE1 171236Z 29010KT 12/01 A3017 RMK A01 T01190009  RH  047%=      5-min Rain = 0
KKE1 171237Z 29009KT 12/01 A3017 RMK A01 T01180009  RH  047%=      5-min Rain = 0
KKE1 171238Z 29011KT 12/01 A3017 RMK A01 T01170008  RH  047%=      5-min Rain = 0
KKE1 171239Z 29016G21KT 12/01 A3017 RMK A01 T01160007  RH  047%=      5-min Rain = 0
KKE1 171240Z 30018G23KT 12/M00 A3018 RMK A01 T01171002  RH  044%=      5-min Rain = 0
KKE1 171241Z 31015KT 12/M02 A3018 RMK A01 T01191017  RH  039%=      5-min Rain = 0
KKE1 171242Z 31014KT 12/M02 A3018 RMK A01 T01201021  RH  037%=      5-min Rain = 0
KKE1 171243Z 31014KT 12/M02 A3018 RMK A01 T01201023  RH  037%=      5-min Rain = 0
KKE1 171244Z 32013KT 12/M02 A3018 RMK A01 T01191024  RH  037%=      5-min Rain = 0
KKE1 171245Z 32015KT 12/M03 A3018 RMK A01 T01181025  RH  037%=      5-min Rain = 0
KKE1 171246Z 31014KT 12/M03 A3018 RMK A01 T01181025  RH  037%=      5-min Rain = 0
KKE1 171247Z 31012G17KT 12/M03 A3019 RMK A01 T01171026  RH  037%=      5-min Rain = 0
KKE1 171248Z 32012KT 12/M03 A3019 RMK A01 T01161026  RH  037%=      5-min Rain = 0
KKE1 171249Z 32011KT 12/M03 A3019 RMK A01 T01151026  RH  037%=      5-min Rain = 0
KKE1 171250Z 31010KT 12/M03 A3019 RMK A01 T01151027  RH  037%=      5-min Rain = 0
KKE1 171251Z 30011KT 11/M03 A3019 RMK A01 T01141027  RH  037%=      5-min Rain = 0
KKE1 171252Z 31011KT 11/M03 A3019 RMK A01 T01141027  RH  037%=      5-min Rain = 0
KKE1 171253Z 31010KT 11/M03 A3019 RMK A01 T01141027  RH  037%=      5-min Rain = 0
KKE1 171254Z 31010KT 11/M03 A3019 RMK A01 T01131027  RH  037%=      5-min Rain = 0
KKE1 171255Z 31012KT 11/M03 A3019 RMK A01 T01121027  RH  038%=      5-min Rain = 0
KKE1 171256Z 31010KT 11/M03 A3019 RMK A01 T01121027  RH  038%=      5-min Rain = 0
KKE1 171257Z 30010KT 11/M03 A3019 RMK A01 T01121027  RH  038%=      5-min Rain = 0
KKE1 171258Z 31010KT 11/M03 A3019 RMK A01 T01111027  RH  038%=      5-min Rain = 0
KKE1 171259Z 30009KT 11/M03 A302 RMK A01 T01111028  RH  038%=      5-min Rain = 0
KKE1 171300Z 31012KT 11/M03 A302 RMK A01 T01101028  RH  038%=      5-min Rain = 0
KKE1 171301Z 31010KT 11/M03 A302 RMK A01 T01101028  RH  038%=      5-min Rain = 0
KKE1 171302Z 31010KT 11/M03 A302 RMK A01 T01101029  RH  038%=      5-min Rain = 0
KKE1 171303Z 30011G16KT 11/M03 A302 RMK A01 T01101028  RH  038%=      5-min Rain = 0
KKE1 171304Z 31010KT 11/M03 A302 RMK A01 T01091029  RH  038%=      5-min Rain = 0
KKE1 171305Z 31010KT 11/M03 A302 RMK A01 T01091029  RH  038%=      5-min Rain = 0
KKE1 171306Z 31007KT 11/M03 A302 RMK A01 T01091029  RH  038%=      5-min Rain = 0
KKE1 171307Z 30006KT 11/M03 A3021 RMK A01 T01081029  RH  038%=      5-min Rain = 0
KKE1 171308Z 30009KT 11/M03 A3021 RMK A01 T01061029  RH  038%=      5-min Rain = 0
KKE1 171309Z 30007KT 11/M03 A3021 RMK A01 T01061029  RH  039%=      5-min Rain = 0
KKE1 171310Z 30008KT 11/M03 A3021 RMK A01 T01061029  RH  039%=      5-min Rain = 0
KKE1 171311Z 30008KT 11/M03 A3021 RMK A01 T01061029  RH  039%=      5-min Rain = 0
KKE1 171312Z 30008KT 11/M03 A3021 RMK A01 T01061030  RH  039%=      5-min Rain = 0
KKE1 171313Z 30008KT 11/M03 A3021 RMK A01 T01061029  RH  039%=      5-min Rain = 0
KKE1 171314Z 30007KT 11/M03 A3021 RMK A01 T01051029  RH  039%=      5-min Rain = 0
KKE1 171315Z 30010KT 11/M03 A3021 RMK A01 T01051029  RH  039%=      5-min Rain = 0
KKE1 171316Z 31009KT 11/M03 A3021 RMK A01 T01051030  RH  039%=      5-min Rain = 0
KKE1 171317Z 31008KT 11/M03 A3021 RMK A01 T01051030  RH  039%=      5-min Rain = 0
KKE1 171318Z 30007KT 11/M03 A3021 RMK A01 T01051030  RH  039%=      5-min Rain = 0
KKE1 171319Z 30008KT 10/M03 A3021 RMK A01 T01041030  RH  039%=      5-min Rain = 0
KKE1 171320Z 30006KT 10/M03 A3022 RMK A01 T01041030  RH  039%=      5-min Rain = 0
KKE1 171321Z 29007KT 10/M03 A3022 RMK A01 T01031030  RH  039%=      5-min Rain = 0
KKE1 171322Z 29006KT 10/M03 A3022 RMK A01 T01031029  RH  039%=      5-min Rain = 0
KKE1 171323Z 29006KT 10/M03 A3022 RMK A01 T01021029  RH  040%=      5-min Rain = 0
KKE1 171324Z 29007KT 10/M03 A3022 RMK A01 T01011030  RH  040%=      5-min Rain = 0
KKE1 171325Z 29005KT 10/M03 A3022 RMK A01 T01001030  RH  040%=      5-min Rain = 0
KKE1 171326Z 29007KT 10/M03 A3022 RMK A01 T00991029  RH  040%=      5-min Rain = 0
KKE1 171327Z 30007KT 10/M03 A3022 RMK A01 T00981030  RH  041%=      5-min Rain = 0
KKE1 171328Z 29007KT 10/M03 A3022 RMK A01 T00971029  RH  041%=      5-min Rain = 0
KKE1 171329Z 29007KT 10/M03 A3022 RMK A01 T00981029  RH  041%=      5-min Rain = 0
KKE1 171330Z 29006KT 10/M03 A3022 RMK A01 T00971029  RH  041%=      5-min Rain = 0
KKE1 171331Z 29008KT 10/M03 A3023 RMK A01 T00971029  RH  041%=      5-min Rain = 0
KKE1 171332Z 29006KT 10/M03 A3023 RMK A01 T00981029  RH  041%=      5-min Rain = 0
KKE1 171333Z 29005KT 10/M03 A3023 RMK A01 T00981029  RH  041%=      5-min Rain = 0
KKE1 171334Z 30006KT 10/M03 A3023 RMK A01 T00981029  RH  041%=      5-min Rain = 0
KKE1 171335Z 29005KT 10/M03 A3023 RMK A01 T00971029  RH  041%=      5-min Rain = 0
KKE1 171336Z 30006KT 10/M03 A3023 RMK A01 T00971029  RH  041%=      5-min Rain = 0
KKE1 171337Z 29006KT 10/M03 A3023 RMK A01 T00961029  RH  041%=      5-min Rain = 0
KKE1 171338Z 30006KT 10/M03 A3023 RMK A01 T00961029  RH  041%=      5-min Rain = 0
KKE1 171339Z 29006KT 10/M03 A3023 RMK A01 T00961029  RH  041%=      5-min Rain = 0
KKE1 171340Z 30006KT 10/M03 A3023 RMK A01 T00961029  RH  041%=      5-min Rain = 0
KKE1 171341Z 29006KT 10/M03 A3023 RMK A01 T00961029  RH  041%=      5-min Rain = 0
KKE1 171342Z 30006KT 10/M03 A3023 RMK A01 T00971029  RH  041%=      5-min Rain = 0
KKE1 171343Z 29007KT 10/M03 A3023 RMK A01 T00971029  RH  041%=      5-min Rain = 0
KKE1 171344Z 29006KT 10/M03 A3023 RMK A01 T00971029  RH  041%=      5-min Rain = 0
KKE1 171345Z 30006KT 10/M03 A3023 RMK A01 T00971029  RH  041%=      5-min Rain = 0
KKE1 171346Z 29005KT 10/M03 A3023 RMK A01 T00961029  RH  041%=      5-min Rain = 0
KKE1 171347Z 27005KT 10/M03 A3023 RMK A01 T00961029  RH  041%=      5-min Rain = 0
KKE1 171348Z 28005KT 10/M03 A3023 RMK A01 T00951029  RH  042%=      5-min Rain = 0
KKE1 171349Z 29004KT 10/M03 A3023 RMK A01 T00951029  RH  042%=      5-min Rain = 0
KKE1 171350Z 28004KT 10/M03 A3023 RMK A01 T00951029  RH  042%=      5-min Rain = 0
KKE1 171351Z 28004KT 09/M03 A3024 RMK A01 T00941028  RH  042%=      5-min Rain = 0
KKE1 171352Z 29006KT 09/M03 A3024 RMK A01 T00941028  RH  042%=      5-min Rain = 0
KKE1 171353Z 29005KT 09/M03 A3024 RMK A01 T00941029  RH  042%=      5-min Rain = 0
KKE1 171354Z 29005KT 10/M03 A3024 RMK A01 T00951028  RH  042%=      5-min Rain = 0
KKE1 171355Z 30004KT 10/M03 A3024 RMK A01 T00951028  RH  042%=      5-min Rain = 0
KKE1 171356Z 29005KT 10/M03 A3024 RMK A01 T00951028  RH  042%=      5-min Rain = 0
KKE1 171357Z 28005KT 10/M03 A3024 RMK A01 T00961028  RH  042%=      5-min Rain = 0
KKE1 171358Z 28003KT 10/M03 A3024 RMK A01 T00961029  RH  041%=      5-min Rain = 0
KKE1 171359Z 29004KT 10/M03 A3024 RMK A01 T00971028  RH  041%=      5-min Rain = 0
KKE1 171400Z 27003KT 10/M03 A3024 RMK A01 T00971028  RH  041%=      5-min Rain = 0
KKE1 171401Z 28004KT 10/M03 A3024 RMK A01 T00961028  RH  042%=      5-min Rain = 0
KKE1 171402Z 29004KT 10/M03 A3025 RMK A01 T00961028  RH  042%=      5-min Rain = 0
KKE1 171403Z 29004KT 10/M03 A3025 RMK A01 T00961029  RH  041%=      5-min Rain = 0
KKE1 171404Z 27003KT 10/M03 A3025 RMK A01 T00971028  RH  041%=      5-min Rain = 0
KKE1 171405Z 27003KT 10/M03 A3025 RMK A01 T00961028  RH  042%=      5-min Rain = 0
KKE1 171406Z 28003KT 10/M03 A3025 RMK A01 T00961027  RH  042%=      5-min Rain = 0
KKE1 171407Z 27003KT 10/M03 A3025 RMK A01 T00951028  RH  042%=      5-min Rain = 0
KKE1 171408Z 28003KT 10/M03 A3025 RMK A01 T00951028  RH  042%=      5-min Rain = 0
KKE1 171409Z 27004KT 10/M03 A3025 RMK A01 T00951027  RH  042%=      5-min Rain = 0
KKE1 171410Z 28004KT 10/M03 A3025 RMK A01 T00951027  RH  042%=      5-min Rain = 0
KKE1 171411Z 28004KT 10/M03 A3025 RMK A01 T00951027  RH  042%=      5-min Rain = 0
KKE1 171412Z 29003KT 10/M03 A3025 RMK A01 T00951027  RH  042%=      5-min Rain = 0
KKE1 171413Z 27003KT 10/M03 A3025 RMK A01 T00951027  RH  042%=      5-min Rain = 0
KKE1 171414Z 28004KT 10/M03 A3025 RMK A01 T00951027  RH  042%=      5-min Rain = 0
KKE1 171415Z 27003KT 10/M03 A3025 RMK A01 T00961028  RH  042%=      5-min Rain = 0
KKE1 171416Z 30004KT 10/M03 A3026 RMK A01 T00971028  RH  041%=      5-min Rain = 0
KKE1 171417Z 28002KT 10/M03 A3026 RMK A01 T00981028  RH  041%=      5-min Rain = 0
KKE1 171418Z 29003KT 10/M03 A3026 RMK A01 T00981028  RH  041%=      5-min Rain = 0
KKE1 171419Z 29003KT 10/M03 A3026 RMK A01 T00981028  RH  041%=      5-min Rain = 0
KKE1 171420Z 29004KT 10/M03 A3026 RMK A01 T00991027  RH  041%=      5-min Rain = 0
KKE1 171421Z 28004KT 10/M03 A3026 RMK A01 T00991027  RH  041%=      5-min Rain = 0
KKE1 171422Z 31004KT 10/M03 A3026 RMK A01 T00991027  RH  041%=      5-min Rain = 0
KKE1 171423Z 31005KT 10/M03 A3026 RMK A01 T01001027  RH  041%=      5-min Rain = 0
KKE1 171424Z 31005KT 10/M03 A3026 RMK A01 T01011028  RH  040%=      5-min Rain = 0
KKE1 171425Z 31004KT 10/M03 A3026 RMK A01 T01021028  RH  040%=      5-min Rain = 0
KKE1 171426Z 31003KT 10/M03 A3027 RMK A01 T01021027  RH  040%=      5-min Rain = 0
KKE1 171427Z 30003KT 10/M03 A3027 RMK A01 T01021027  RH  040%=      5-min Rain = 0
KKE1 171428Z 31004KT 10/M03 A3027 RMK A01 T01021027  RH  040%=      5-min Rain = 0
KKE1 171429Z 30005KT 10/M03 A3027 RMK A01 T01031027  RH  040%=      5-min Rain = 0
KKE1 171430Z 31003KT 10/M03 A3027 RMK A01 T01031028  RH  040%=      5-min Rain = 0
KKE1 171431Z 27002KT 10/M03 A3027 RMK A01 T01031027  RH  040%=      5-min Rain = 0
KKE1 171432Z 30003KT 10/M03 A3027 RMK A01 T01041027  RH  040%=      5-min Rain = 0
KKE1 171433Z 30003KT 10/M03 A3027 RMK A01 T01041027  RH  040%=      5-min Rain = 0
KKE1 171434Z 29003KT 10/M03 A3027 RMK A01 T01041027  RH  040%=      5-min Rain = 0
KKE1 171435Z 30004KT 11/M03 A3027 RMK A01 T01051026  RH  040%=      5-min Rain = 0
KKE1 171436Z 28003KT 11/M03 A3027 RMK A01 T01051026  RH  040%=      5-min Rain = 0
KKE1 171437Z 30003KT 10/M03 A3027 RMK A01 T01041025  RH  040%=      5-min Rain = 0
KKE1 171438Z 33005KT 11/M03 A3027 RMK A01 T01051025  RH  040%=      5-min Rain = 0
KKE1 171439Z 32005KT 11/M03 A3027 RMK A01 T01051027  RH  040%=      5-min Rain = 0
KKE1 171440Z 32006KT 11/M03 A3027 RMK A01 T01051027  RH  040%=      5-min Rain = 0
KKE1 171441Z 32006KT 11/M03 A3027 RMK A01 T01051027  RH  039%=      5-min Rain = 0
KKE1 171442Z 33005KT 11/M03 A3027 RMK A01 T01051028  RH  039%=      5-min Rain = 0
KKE1 171443Z 33004KT 11/M03 A3027 RMK A01 T01061027  RH  039%=      5-min Rain = 0
KKE1 171444Z 31006KT 11/M03 A3027 RMK A01 T01061026  RH  040%=      5-min Rain = 0
KKE1 171445Z 31008KT 11/M03 A3027 RMK A01 T01061027  RH  039%=      5-min Rain = 0
KKE1 171446Z 33006KT 11/M03 A3028 RMK A01 T01071027  RH  039%=      5-min Rain = 0
KKE1 171447Z 33008KT 11/M03 A3028 RMK A01 T01071027  RH  039%=      5-min Rain = 0
KKE1 171448Z 33005KT 11/M03 A3028 RMK A01 T01071027  RH  039%=      5-min Rain = 0
KKE1 171449Z 31007KT 11/M03 A3028 RMK A01 T01081026  RH  039%=      5-min Rain = 0
KKE1 171450Z 33006KT 11/M03 A3028 RMK A01 T01081027  RH  039%=      5-min Rain = 0
KKE1 171451Z 31004KT 11/M03 A3028 RMK A01 T01091027  RH  038%=      5-min Rain = 0
KKE1 171452Z 31006KT 11/M03 A3028 RMK A01 T01091026  RH  039%=      5-min Rain = 0
KKE1 171453Z 32005KT 11/M03 A3028 RMK A01 T01091026  RH  039%=      5-min Rain = 0
KKE1 171454Z 31004KT 11/M03 A3028 RMK A01 T01101025  RH  039%=      5-min Rain = 0
KKE1 171455Z 32006KT 11/M03 A3028 RMK A01 T01101027  RH  038%=      5-min Rain = 0
KKE1 171456Z 31007KT 11/M03 A3028 RMK A01 T01101026  RH  038%=      5-min Rain = 0
KKE1 171457Z 32006KT 11/M03 A3028 RMK A01 T01101026  RH  038%=      5-min Rain = 0
KKE1 171458Z 33006KT 11/M03 A3028 RMK A01 T01101026  RH  039%=      5-min Rain = 0
KKE1 171459Z 32006KT 11/M03 A3028 RMK A01 T01101026  RH  038%=      5-min Rain = 0
KKE1 171500Z 33009KT 11/M03 A3028 RMK A01 T01101026  RH  038%=      5-min Rain = 0
KKE1 171501Z 33009KT 11/M03 A3028 RMK A01 T01101026  RH  038%=      5-min Rain = 0
KKE1 171502Z 33007KT 11/M03 A3027 RMK A01 T01101027  RH  038%=      5-min Rain = 0
KKE1 171503Z 32006KT 11/M03 A3028 RMK A01 T01101026  RH  038%=      5-min Rain = 0
KKE1 171504Z 33005KT 11/M03 A3028 RMK A01 T01101025  RH  039%=      5-min Rain = 0
KKE1 171505Z 34008KT 11/M03 A3028 RMK A01 T01101025  RH  039%=      5-min Rain = 0
KKE1 171506Z 33009KT 11/M03 A3028 RMK A01 T01101026  RH  038%=      5-min Rain = 0
KKE1 171507Z 33006KT 11/M03 A3028 RMK A01 T01101027  RH  038%=      5-min Rain = 0
KKE1 171508Z 33007KT 11/M03 A3028 RMK A01 T01101026  RH  038%=      5-min Rain = 0
KKE1 171509Z 31008KT 11/M03 A3028 RMK A01 T01111025  RH  039%=      5-min Rain = 0
KKE1 171510Z 31010KT 11/M03 A3028 RMK A01 T01111026  RH  038%=      5-min Rain = 0
KKE1 171511Z 33008KT 11/M03 A3028 RMK A01 T01111026  RH  038%=      5-min Rain = 0
KKE1 171512Z 34009KT 11/M03 A3028 RMK A01 T01101026  RH  039%=      5-min Rain = 0
KKE1 171513Z 33007KT 11/M03 A3029 RMK A01 T01111026  RH  038%=      5-min Rain = 0
KKE1 171514Z 34007KT 11/M03 A3029 RMK A01 T01111026  RH  038%=      5-min Rain = 0
KKE1 171515Z 34008KT 11/M03 A3029 RMK A01 T01111025  RH  038%=      5-min Rain = 0
KKE1 171516Z 32008KT 11/M02 A3029 RMK A01 T01121024  RH  038%=      5-min Rain = 0
KKE1 171517Z 31007KT 11/M03 A3029 RMK A01 T01131025  RH  038%=      5-min Rain = 0
KKE1 171518Z 32007KT 11/M02 A3029 RMK A01 T01131024  RH  038%=      5-min Rain = 0
KKE1 171519Z 32008KT 11/M02 A3029 RMK A01 T01131024  RH  038%=      5-min Rain = 0
KKE1 171520Z 33008KT 11/M03 A3029 RMK A01 T01131025  RH  038%=      5-min Rain = 0
KKE1 171521Z 32007KT 11/M03 A303 RMK A01 T01121025  RH  038%=      5-min Rain = 0
KKE1 171522Z 32009KT 11/M02 A303 RMK A01 T01121024  RH  038%=      5-min Rain = 0
KKE1 171523Z 33008KT 11/M02 A303 RMK A01 T01121024  RH  038%=      5-min Rain = 0
KKE1 171524Z 34008KT 11/M02 A303 RMK A01 T01111024  RH  039%=      5-min Rain = 0
KKE1 171525Z 34008KT 11/M02 A303 RMK A01 T01111024  RH  039%=      5-min Rain = 0
KKE1 171526Z 33007KT 11/M02 A303 RMK A01 T01111024  RH  039%=      5-min Rain = 0
KKE1 171527Z 32005KT 11/M02 A3029 RMK A01 T01121023  RH  039%=      5-min Rain = 0
KKE1 171528Z 34005KT 11/M02 A3029 RMK A01 T01131023  RH  039%=      5-min Rain = 0
KKE1 171529Z 35009KT 11/M02 A3029 RMK A01 T01141023  RH  039%=      5-min Rain = 0
KKE1 171530Z 00011KT 11/M02 A3029 RMK A01 T01131023  RH  039%=      5-min Rain = 0
KKE1 171531Z 01011KT 11/M02 A3029 RMK A01 T01141023  RH  038%=      5-min Rain = 0
KKE1 171532Z 35009KT 11/M02 A3029 RMK A01 T01131023  RH  039%=      5-min Rain = 0
KKE1 171533Z 34007KT 11/M02 A3028 RMK A01 T01121023  RH  039%=      5-min Rain = 0
KKE1 171534Z 33008KT 11/M02 A3028 RMK A01 T01131021  RH  039%=      5-min Rain = 0
KKE1 171535Z 35010KT 11/M02 A3028 RMK A01 T01141021  RH  039%=      5-min Rain = 0
KKE1 171536Z 36012KT 11/M02 A3028 RMK A01 T01141022  RH  039%=      5-min Rain = 0
KKE1 171537Z 35010KT 11/M02 A3028 RMK A01 T01141022  RH  039%=      5-min Rain = 0
KKE1 171538Z 36008KT 11/M02 A3028 RMK A01 T01131022  RH  039%=      5-min Rain = 0
KKE1 171539Z 34009KT 11/M02 A3028 RMK A01 T01131021  RH  039%=      5-min Rain = 0
KKE1 171540Z 35007KT 11/M02 A3028 RMK A01 T01131021  RH  039%=      5-min Rain = 0
KKE1 171541Z 35009KT 11/M02 A3028 RMK A01 T01141020  RH  039%=      5-min Rain = 0
KKE1 171542Z 34008KT 11/M02 A3028 RMK A01 T01141021  RH  039%=      5-min Rain = 0
KKE1 171543Z 34006KT 11/M02 A3028 RMK A01 T01131021  RH  039%=      5-min Rain = 0
KKE1 171544Z 35009KT 11/M02 A3028 RMK A01 T01131020  RH  039%=      5-min Rain = 0
KKE1 171545Z 36011KT 11/M02 A3028 RMK A01 T01131021  RH  039%=      5-min Rain = 0
KKE1 171546Z 35011KT 11/M02 A3028 RMK A01 T01121021  RH  039%=      5-min Rain = 0
KKE1 171547Z 34009KT 11/M02 A3028 RMK A01 T01121021  RH  039%=      5-min Rain = 0
KKE1 171548Z 35010KT 11/M02 A3028 RMK A01 T01121021  RH  039%=      5-min Rain = 0
KKE1 171549Z 36009KT 11/M02 A3028 RMK A01 T01121021  RH  040%=      5-min Rain = 0
KKE1 171550Z 35007KT 11/M02 A3028 RMK A01 T01121020  RH  040%=      5-min Rain = 0
KKE1 171551Z 34010KT 11/M02 A3028 RMK A01 T01121021  RH  040%=      5-min Rain = 0
KKE1 171552Z 34009KT 11/M02 A3028 RMK A01 T01121021  RH  040%=      5-min Rain = 0
KKE1 171553Z 34009KT 11/M02 A3028 RMK A01 T01121020  RH  040%=      5-min Rain = 0
KKE1 171554Z 36007KT 11/M02 A3028 RMK A01 T01121020  RH  040%=      5-min Rain = 0
KKE1 171555Z 35010KT 11/M02 A3028 RMK A01 T01121020  RH  040%=      5-min Rain = 0
KKE1 171556Z 35011KT 11/M02 A3028 RMK A01 T01121021  RH  039%=      5-min Rain = 0
KKE1 171557Z 35011KT 11/M02 A3028 RMK A01 T01121021  RH  040%=      5-min Rain = 0
KKE1 171558Z 00007KT 11/M02 A3028 RMK A01 T01121020  RH  040%=      5-min Rain = 0
KKE1 171559Z 36008KT 11/M02 A3028 RMK A01 T01131020  RH  040%=      5-min Rain = 0
KKE1 171600Z 00008G14KT 11/M02 A3028 RMK A01 T01131020  RH  040%=      5-min Rain = 0
KKE1 171601Z 35012KT 11/M02 A3028 RMK A01 T01141019  RH  039%=      5-min Rain = 0
KKE1 171602Z 34011KT 11/M02 A3028 RMK A01 T01141020  RH  039%=      5-min Rain = 0
KKE1 171603Z 35011KT 11/M02 A3028 RMK A01 T01141020  RH  039%=      5-min Rain = 0
KKE1 171604Z 35008KT 11/M02 A3028 RMK A01 T01141020  RH  039%=      5-min Rain = 0
KKE1 171605Z 36009KT 11/M02 A3028 RMK A01 T01141019  RH  039%=      5-min Rain = 0
KKE1 171606Z 00007KT 12/M02 A3028 RMK A01 T01151019  RH  039%=      5-min Rain = 0
KKE1 171607Z 00008KT 12/M02 A3028 RMK A01 T01171017  RH  039%=      5-min Rain = 0
KKE1 171608Z 36007KT 12/M02 A3028 RMK A01 T01191017  RH  039%=      5-min Rain = 0
KKE1 171609Z 35010KT 12/M02 A3028 RMK A01 T01191018  RH  038%=      5-min Rain = 0
KKE1 171610Z 35008KT 12/M02 A3028 RMK A01 T01191019  RH  038%=      5-min Rain = 0
KKE1 171611Z 34007KT 12/M02 A3028 RMK A01 T01181019  RH  038%=      5-min Rain = 0
KKE1 171612Z 34007KT 12/M02 A3028 RMK A01 T01171019  RH  038%=      5-min Rain = 0
KKE1 171613Z 34009KT 12/M02 A3028 RMK A01 T01171019  RH  039%=      5-min Rain = 0
KKE1 171614Z 34008KT 12/M02 A3029 RMK A01 T01171019  RH  039%=      5-min Rain = 0
KKE1 171615Z 34006KT 12/M02 A3029 RMK A01 T01181018  RH  039%=      5-min Rain = 0
KKE1 171616Z 36007KT 12/M02 A3028 RMK A01 T01191017  RH  039%=      5-min Rain = 0
KKE1 171617Z 02010KT 12/M02 A3028 RMK A01 T01201018  RH  038%=      5-min Rain = 0
KKE1 171618Z 00010KT 12/M02 A3028 RMK A01 T01191020  RH  038%=      5-min Rain = 0
KKE1 171619Z 35009KT 12/M02 A3028 RMK A01 T01181019  RH  038%=      5-min Rain = 0
KKE1 171620Z 35011KT 12/M02 A3028 RMK A01 T01171019  RH  039%=      5-min Rain = 0
KKE1 171621Z 35009KT 12/M02 A3028 RMK A01 T01181019  RH  038%=      5-min Rain = 0
KKE1 171622Z 34009KT 12/M02 A3028 RMK A01 T01181019  RH  039%=      5-min Rain = 0
KKE1 171623Z 34009KT 12/M02 A3028 RMK A01 T01191018  RH  039%=      5-min Rain = 0
KKE1 171624Z 35011KT 12/M02 A3028 RMK A01 T01211017  RH  038%=      5-min Rain = 0
KKE1 171625Z 34010KT 12/M02 A3028 RMK A01 T01221018  RH  038%=      5-min Rain = 0
KKE1 171626Z 34009KT 12/M02 A3028 RMK A01 T01221018  RH  038%=      5-min Rain = 0
KKE1 171627Z 34008KT 12/M02 A3029 RMK A01 T01221018  RH  038%=      5-min Rain = 0
KKE1 171628Z 35009KT 12/M02 A3029 RMK A01 T01231018  RH  038%=      5-min Rain = 0
KKE1 171629Z 35009KT 12/M02 A3029 RMK A01 T01241016  RH  038%=      5-min Rain = 0
KKE1 171630Z 34009KT 13/M02 A3029 RMK A01 T01251017  RH  037%=      5-min Rain = 0
KKE1 171631Z 34008KT 13/M02 A3029 RMK A01 T01251017  RH  037%=      5-min Rain = 0
KKE1 171632Z 02007KT 12/M02 A3029 RMK A01 T01241017  RH  037%=      5-min Rain = 0
KKE1 171633Z 35010KT 12/M02 A3028 RMK A01 T01241018  RH  037%=      5-min Rain = 0
KKE1 171634Z 35007KT 12/M02 A3028 RMK A01 T01221018  RH  038%=      5-min Rain = 0
KKE1 171635Z 34005KT 12/M02 A3028 RMK A01 T01211018  RH  038%=      5-min Rain = 0
KKE1 171636Z 34008KT 12/M02 A3028 RMK A01 T01221017  RH  038%=      5-min Rain = 0
KKE1 171637Z 35009KT 12/M02 A3028 RMK A01 T01231016  RH  038%=      5-min Rain = 0
KKE1 171638Z 00009KT 13/M02 A3028 RMK A01 T01251016  RH  038%=      5-min Rain = 0
KKE1 171639Z 35009KT 13/M02 A3028 RMK A01 T01251016  RH  038%=      5-min Rain = 0
KKE1 171640Z 01006KT 13/M02 A3028 RMK A01 T01251016  RH  037%=      5-min Rain = 0
KKE1 171641Z 33007KT 13/M02 A3028 RMK A01 T01261017  RH  037%=      5-min Rain = 0
KKE1 171642Z 34008KT 12/M02 A3028 RMK A01 T01231018  RH  037%=      5-min Rain = 0
KKE1 171643Z 35005KT 12/M02 A3028 RMK A01 T01211019  RH  038%=      5-min Rain = 0
KKE1 171644Z 01005KT 12/M02 A3028 RMK A01 T01201018  RH  038%=      5-min Rain = 0
KKE1 171645Z 01011KT 12/M02 A3028 RMK A01 T01211016  RH  039%=      5-min Rain = 0
KKE1 171646Z 35010KT 12/M02 A3028 RMK A01 T01231016  RH  038%=      5-min Rain = 0
KKE1 171647Z 34009KT 12/M02 A3028 RMK A01 T01231018  RH  038%=      5-min Rain = 0
KKE1 171648Z 34010KT 12/M02 A3028 RMK A01 T01221017  RH  038%=      5-min Rain = 0
KKE1 171649Z 35009KT 12/M02 A3028 RMK A01 T01221018  RH  038%=      5-min Rain = 0
KKE1 171650Z 35009KT 12/M02 A3028 RMK A01 T01211018  RH  038%=      5-min Rain = 0
KKE1 171651Z 00008KT 12/M02 A3028 RMK A01 T01211017  RH  038%=      5-min Rain = 0
KKE1 171652Z 01010KT 13/M01 A3028 RMK A01 T01251014  RH  038%=      5-min Rain = 0
KKE1 171653Z 01011KT 13/M02 A3028 RMK A01 T01271015  RH  037%=      5-min Rain = 0
KKE1 171654Z 00009KT 13/M02 A3028 RMK A01 T01261017  RH  037%=      5-min Rain = 0
KKE1 171655Z 35007KT 13/M02 A3028 RMK A01 T01251017  RH  037%=      5-min Rain = 0
KKE1 171656Z 01009KT 13/M02 A3028 RMK A01 T01251017  RH  037%=      5-min Rain = 0
KKE1 171657Z 36008KT 12/M02 A3028 RMK A01 T01241017  RH  037%=      5-min Rain = 0
KKE1 171658Z 01008KT 13/M01 A3028 RMK A01 T01251014  RH  038%=      5-min Rain = 0
KKE1 171659Z 01009KT 13/M01 A3028 RMK A01 T01281014  RH  037%=      5-min Rain = 0
KKE1 171700Z 02010KT 13/M01 A3028 RMK A01 T01291014  RH  037%=      5-min Rain = 0
KKE1 171701Z 01011KT 13/M02 A3028 RMK A01 T01291016  RH  037%=      5-min Rain = 0
KKE1 171702Z 02009KT 13/M02 A3028 RMK A01 T01281016  RH  037%=      5-min Rain = 0
KKE1 171703Z 02010KT 13/M02 A3028 RMK A01 T01251018  RH  037%=      5-min Rain = 0
KKE1 171704Z 02008KT 12/M02 A3028 RMK A01 T01241017  RH  037%=      5-min Rain = 0
KKE1 171705Z 01007KT 13/M02 A3028 RMK A01 T01251016  RH  037%=      5-min Rain = 0
KKE1 171706Z 36004KT 13/M02 A3028 RMK A01 T01251016  RH  037%=      5-min Rain = 0
KKE1 171707Z 01010KT 13/M01 A3028 RMK A01 T01261014  RH  038%=      5-min Rain = 0
KKE1 171708Z 01008KT 13/M01 A3028 RMK A01 T01271014  RH  038%=      5-min Rain = 0
KKE1 171709Z 00007KT 13/M01 A3028 RMK A01 T01271014  RH  037%=      5-min Rain = 0
KKE1 171710Z 36006KT 13/M02 A3028 RMK A01 T01261015  RH  037%=      5-min Rain = 0
KKE1 171711Z 02005KT 13/M01 A3028 RMK A01 T01271013  RH  038%=      5-min Rain = 0
KKE1 171712Z 02009KT 13/M01 A3028 RMK A01 T01301012  RH  037%=      5-min Rain = 0
KKE1 171713Z 01012KT 13/M01 A3028 RMK A01 T01321013  RH  037%=      5-min Rain = 0
KKE1 171714Z 01008KT 13/M02 A3028 RMK A01 T01301016  RH  036%=      5-min Rain = 0
KKE1 171715Z 02007KT 13/M01 A3028 RMK A01 T01301013  RH  037%=      5-min Rain = 0
KKE1 171716Z 02008KT 13/M02 A3028 RMK A01 T01311015  RH  036%=      5-min Rain = 0
KKE1 171717Z 02009KT 13/M02 A3028 RMK A01 T01291015  RH  037%=      5-min Rain = 0
KKE1 171718Z 03007KT 13/M02 A3028 RMK A01 T01281015  RH  037%=      5-min Rain = 0
KKE1 171719Z 01008KT 13/M01 A3028 RMK A01 T01271014  RH  038%=      5-min Rain = 0
KKE1 171720Z 35007KT 13/M01 A3028 RMK A01 T01291011  RH  038%=      5-min Rain = 0
KKE1 171721Z 34008KT 13/M01 A3028 RMK A01 T01321012  RH  037%=      5-min Rain = 0
KKE1 171722Z 01011KT 13/M01 A3028 RMK A01 T01311013  RH  037%=      5-min Rain = 0
KKE1 171723Z 01012KT 13/M02 A3028 RMK A01 T01291016  RH  037%=      5-min Rain = 0
KKE1 171724Z 01007KT 13/M02 A3028 RMK A01 T01251017  RH  037%=      5-min Rain = 0
KKE1 171725Z 00007KT 12/M02 A3028 RMK A01 T01241017  RH  038%=      5-min Rain = 0
KKE1 171726Z 36005KT 13/M02 A3028 RMK A01 T01251015  RH  038%=      5-min Rain = 0
KKE1 171727Z 04005KT 13/M02 A3028 RMK A01 T01251015  RH  038%=      5-min Rain = 0
KKE1 171728Z 03006KT 13/M02 A3028 RMK A01 T01251015  RH  038%=      5-min Rain = 0
KKE1 171729Z 02006KT 13/M01 A3028 RMK A01 T01251014  RH  038%=      5-min Rain = 0
KKE1 171730Z 35010KT 13/M01 A3027 RMK A01 T01261014  RH  038%=      5-min Rain = 0
KKE1 171731Z 34008KT 13/M01 A3027 RMK A01 T01261014  RH  038%=      5-min Rain = 0
KKE1 171732Z 33008KT 13/M01 A3027 RMK A01 T01271013  RH  038%=      5-min Rain = 0
KKE1 171733Z 34007KT 13/M01 A3027 RMK A01 T01281012  RH  038%=      5-min Rain = 0
KKE1 171734Z 34009KT 13/M01 A3027 RMK A01 T01311011  RH  038%=      5-min Rain = 0
KKE1 171735Z 02008KT 13/M01 A3027 RMK A01 T01311011  RH  037%=      5-min Rain = 0
KKE1 171736Z 02008KT 13/M01 A3027 RMK A01 T01311012  RH  037%=      5-min Rain = 0
KKE1 171737Z 02008KT 13/M01 A3027 RMK A01 T01301012  RH  037%=      5-min Rain = 0
KKE1 171738Z 35009KT 13/M01 A3027 RMK A01 T01311011  RH  038%=      5-min Rain = 0
KKE1 171739Z 00007KT 13/M01 A3027 RMK A01 T01321011  RH  037%=      5-min Rain = 0
KKE1 171740Z 01011KT 13/M01 A3027 RMK A01 T01331011  RH  037%=      5-min Rain = 0
KKE1 171741Z 00011KT 13/M01 A3027 RMK A01 T01321012  RH  037%=      5-min Rain = 0
KKE1 171742Z 34008KT 13/M02 A3027 RMK A01 T01291015  RH  037%=      5-min Rain = 0
KKE1 171743Z 01007KT 13/M01 A3027 RMK A01 T01261014  RH  038%=      5-min Rain = 0
KKE1 171744Z 03006KT 13/M01 A3027 RMK A01 T01261014  RH  038%=      5-min Rain = 0
KKE1 171745Z 02004KT 13/M01 A3026 RMK A01 T01271013  RH  038%=      5-min Rain = 0
KKE1 171746Z 00007KT 13/M01 A3026 RMK A01 T01291011  RH  038%=      5-min Rain = 0
KKE1 171747Z 35006KT 13/M01 A3026 RMK A01 T01311013  RH  037%=      5-min Rain = 0
KKE1 171748Z 35008KT 13/M01 A3026 RMK A01 T01281014  RH  037%=      5-min Rain = 0
KKE1 171749Z 35008KT 13/M01 A3026 RMK A01 T01281013  RH  038%=      5-min Rain = 0
KKE1 171750Z 34008KT 13/M01 A3026 RMK A01 T01291013  RH  038%=      5-min Rain = 0
KKE1 171751Z 02006KT 13/M01 A3026 RMK A01 T01301012  RH  037%=      5-min Rain = 0
KKE1 171752Z 04007KT 13/M01 A3026 RMK A01 T01311014  RH  037%=      5-min Rain = 0
KKE1 171753Z 01008KT 13/M01 A3026 RMK A01 T01331012  RH  037%=      5-min Rain = 0
KKE1 171754Z 35005KT 13/M01 A3026 RMK A01 T01331012  RH  037%=      5-min Rain = 0
KKE1 171755Z 35006KT 13/M01 A3026 RMK A01 T01341011  RH  037%=      5-min Rain = 0
KKE1 171756Z 01007KT 13/M01 A3026 RMK A01 T01341012  RH  036%=      5-min Rain = 0
KKE1 171757Z 01009KT 13/M01 A3026 RMK A01 T01321014  RH  036%=      5-min Rain = 0
KKE1 171758Z 01008KT 13/M01 A3026 RMK A01 T01291014  RH  037%=      5-min Rain = 0
KKE1 171759Z 36006KT 13/M01 A3026 RMK A01 T01281012  RH  038%=      5-min Rain = 0
KKE1 171800Z 34008KT 13/M01 A3026 RMK A01 T01311010  RH  038%=      5-min Rain = 0
KKE1 171801Z 33007KT 13/M01 A3026 RMK A01 T01311011  RH  037%=      5-min Rain = 0
KKE1 171802Z 34005KT 13/M01 A3026 RMK A01 T01301011  RH  038%=      5-min Rain = 0
KKE1 171803Z 33007KT 13/M01 A3026 RMK A01 T01291013  RH  038%=      5-min Rain = 0
KKE1 171804Z 34009KT 13/M01 A3026 RMK A01 T01301011  RH  038%=      5-min Rain = 0
KKE1 171805Z 00009KT 13/M01 A3026 RMK A01 T01321010  RH  037%=      5-min Rain = 0
KKE1 171806Z 01009KT 13/M01 A3026 RMK A01 T01301012  RH  037%=      5-min Rain = 0
KKE1 171807Z 36008KT 13/M01 A3026 RMK A01 T01311011  RH  037%=      5-min Rain = 0
KKE1 171808Z 36010KT 13/M01 A3026 RMK A01 T01311012  RH  037%=      5-min Rain = 0
KKE1 171809Z 35009KT 13/M01 A3025 RMK A01 T01281014  RH  037%=      5-min Rain = 0
KKE1 171810Z 36007KT 13/M01 A3026 RMK A01 T01271014  RH  038%=      5-min Rain = 0
KKE1 171811Z 35006KT 13/M01 A3025 RMK A01 T01261014  RH  038%=      5-min Rain = 0
KKE1 171812Z 35007KT 13/M01 A3025 RMK A01 T01271012  RH  038%=      5-min Rain = 0
KKE1 171813Z 02008KT 13/M01 A3025 RMK A01 T01291012  RH  038%=      5-min Rain = 0
KKE1 171814Z 03008KT 13/M01 A3025 RMK A01 T01291012  RH  038%=      5-min Rain = 0
KKE1 171815Z 02008KT 13/M01 A3025 RMK A01 T01311011  RH  037%=      5-min Rain = 0
KKE1 171816Z 01007KT 13/M01 A3025 RMK A01 T01311011  RH  037%=      5-min Rain = 0
KKE1 171817Z 02006KT 13/M01 A3025 RMK A01 T01331010  RH  037%=      5-min Rain = 0
KKE1 171818Z 02007KT 13/M01 A3025 RMK A01 T01331011  RH  037%=      5-min Rain = 0
KKE1 171819Z 02004KT 13/M01 A3025 RMK A01 T01311011  RH  037%=      5-min Rain = 0
KKE1 171820Z 04003KT 13/M01 A3025 RMK A01 T01321009  RH  038%=      5-min Rain = 0
KKE1 171821Z 01003KT 13/M01 A3025 RMK A01 T01331010  RH  037%=      5-min Rain = 0
KKE1 171822Z 36008KT 14/M01 A3025 RMK A01 T01361007  RH  038%=      5-min Rain = 0
KKE1 171823Z 36006KT 14/M01 A3025 RMK A01 T01371009  RH  037%=      5-min Rain = 0
KKE1 171824Z 00003KT 14/M01 A3025 RMK A01 T01361010  RH  037%=      5-min Rain = 0
KKE1 171825Z 35005KT 14/M01 A3025 RMK A01 T01351009  RH  037%=      5-min Rain = 0
KKE1 171826Z 34004KT 14/M01 A3025 RMK A01 T01381007  RH  037%=      5-min Rain = 0
KKE1 171827Z 01007KT 14/M01 A3025 RMK A01 T01391008  RH  036%=      5-min Rain = 0
KKE1 171828Z 02007KT 14/M01 A3025 RMK A01 T01381010  RH  036%=      5-min Rain = 0
KKE1 171829Z 03005KT 14/M01 A3025 RMK A01 T01371010  RH  036%=      5-min Rain = 0
KKE1 171830Z 04007KT 14/M01 A3025 RMK A01 T01371010  RH  036%=      5-min Rain = 0
KKE1 171831Z 05004KT 14/M01 A3024 RMK A01 T01351011  RH  036%=      5-min Rain = 0
KKE1 171832Z 05004KT 13/M01 A3024 RMK A01 T01331011  RH  037%=      5-min Rain = 0
KKE1 171833Z 06004KT 13/M01 A3024 RMK A01 T01331011  RH  037%=      5-min Rain = 0
KKE1 171834Z 03005KT 13/M01 A3024 RMK A01 T01331011  RH  037%=      5-min Rain = 0
KKE1 171835Z 03004KT 13/M01 A3024 RMK A01 T01331011  RH  037%=      5-min Rain = 0
KKE1 171836Z 35008KT 13/M01 A3024 RMK A01 T01331010  RH  037%=      5-min Rain = 0
KKE1 171837Z 34007KT 14/M01 A3024 RMK A01 T01351009  RH  037%=      5-min Rain = 0
KKE1 171838Z 33006KT 14/M01 A3024 RMK A01 T01351010  RH  037%=      5-min Rain = 0
KKE1 171839Z 35004KT 13/M01 A3024 RMK A01 T01331011  RH  037%=      5-min Rain = 0
KKE1 171840Z 35003KT 13/M01 A3024 RMK A01 T01301012  RH  037%=      5-min Rain = 0
KKE1 171841Z 31003KT 13/M01 A3024 RMK A01 T01311009  RH  038%=      5-min Rain = 0
KKE1 171842Z 33003KT 13/M01 A3024 RMK A01 T01321011  RH  037%=      5-min Rain = 0
KKE1 171843Z 35006KT 13/M01 A3024 RMK A01 T01321011  RH  037%=      5-min Rain = 0
KKE1 171844Z 35005KT 13/M01 A3023 RMK A01 T01321010  RH  038%=      5-min Rain = 0
KKE1 171845Z 02003KT 13/M01 A3023 RMK A01 T01321009  RH  038%=      5-min Rain = 0
KKE1 171846Z 04006KT 14/M01 A3023 RMK A01 T01361008  RH  037%=      5-min Rain = 0
KKE1 171847Z 02005KT 14/M01 A3024 RMK A01 T01381009  RH  036%=      5-min Rain = 0
KKE1 171848Z 03006KT 14/M01 A3023 RMK A01 T01381009  RH  036%=      5-min Rain = 0
KKE1 171849Z 04007G12KT 14/M01 A3023 RMK A01 T01371011  RH  036%=      5-min Rain = 0
KKE1 171850Z 03010KT 14/M01 A3023 RMK A01 T01351012  RH  036%=      5-min Rain = 0
KKE1 171851Z 01008KT 13/M01 A3023 RMK A01 T01331013  RH  037%=      5-min Rain = 0
KKE1 171852Z 01007KT 13/M01 A3023 RMK A01 T01341011  RH  037%=      5-min Rain = 0
KKE1 171853Z 02007KT 14/M01 A3023 RMK A01 T01351011  RH  037%=      5-min Rain = 0
KKE1 171854Z 03008KT 14/M01 A3023 RMK A01 T01361010  RH  036%=      5-min Rain = 0
KKE1 171855Z 03007KT 14/M01 A3022 RMK A01 T01371011  RH  036%=      5-min Rain = 0
KKE1 171856Z 03007KT 14/M01 A3022 RMK A01 T01381009  RH  036%=      5-min Rain = 0
KKE1 171857Z 01005KT 14/M01 A3022 RMK A01 T01421008  RH  036%=      5-min Rain = 0
KKE1 171858Z 02005KT 15/M01 A3022 RMK A01 T01461008  RH  035%=      5-min Rain = 0
KKE1 171859Z 02004KT 14/M01 A3022 RMK A01 T01431012  RH  034%=      5-min Rain = 0
KKE1 171900Z 04003KT 14/M01 A3022 RMK A01 T01401012  RH  035%=      5-min Rain = 0
KKE1 171901Z 36003KT 14/M01 A3022 RMK A01 T01391012  RH  035%=      5-min Rain = 0
KKE1 171902Z 31002KT 14/M01 A3022 RMK A01 T01381011  RH  036%=      5-min Rain = 0
KKE1 171903Z 01002KT 14/M01 A3022 RMK A01 T01381010  RH  036%=      5-min Rain = 0
KKE1 171904Z 02004KT 14/M01 A3022 RMK A01 T01371011  RH  036%=      5-min Rain = 0
KKE1 171905Z 03006KT 14/M01 A3022 RMK A01 T01371009  RH  036%=      5-min Rain = 0
KKE1 171906Z 03007KT 14/M01 A3022 RMK A01 T01381008  RH  036%=      5-min Rain = 0
KKE1 171907Z 02007KT 14/M01 A3022 RMK A01 T01401008  RH  036%=      5-min Rain = 0
KKE1 171908Z 03008KT 14/M01 A3022 RMK A01 T01421008  RH  036%=      5-min Rain = 0
KKE1 171909Z 01008KT 14/M01 A3022 RMK A01 T01431008  RH  036%=      5-min Rain = 0
KKE1 171910Z 01006KT 14/M01 A3021 RMK A01 T01421010  RH  035%=      5-min Rain = 0
KKE1 171911Z 02006KT 14/M01 A3021 RMK A01 T01401010  RH  036%=      5-min Rain = 0
KKE1 171912Z 01008KT 14/M01 A3021 RMK A01 T01381011  RH  036%=      5-min Rain = 0
KKE1 171913Z 02007KT 14/M01 A3022 RMK A01 T01381010  RH  036%=      5-min Rain = 0
KKE1 171914Z 03005KT 14/M01 A3022 RMK A01 T01371011  RH  036%=      5-min Rain = 0
KKE1 171915Z 03005KT 14/M01 A3022 RMK A01 T01371011  RH  036%=      5-min Rain = 0
KKE1 171916Z 04005KT 14/M01 A3021 RMK A01 T01371011  RH  036%=      5-min Rain = 0
KKE1 171917Z 05006KT 14/M01 A3021 RMK A01 T01381010  RH  036%=      5-min Rain = 0
KKE1 171918Z 04006KT 14/M01 A3021 RMK A01 T01381012  RH  036%=      5-min Rain = 0
KKE1 171919Z 03006KT 14/M01 A3021 RMK A01 T01361012  RH  036%=      5-min Rain = 0
KKE1 171920Z 03003KT 14/M01 A3021 RMK A01 T01381011  RH  036%=      5-min Rain = 0
KKE1 171921Z 04006KT 14/M01 A3021 RMK A01 T01381011  RH  036%=      5-min Rain = 0
KKE1 171922Z 04007KT 14/M01 A3021 RMK A01 T01391010  RH  036%=      5-min Rain = 0
KKE1 171923Z 04006KT 14/M01 A3021 RMK A01 T01401010  RH  036%=      5-min Rain = 0
KKE1 171924Z 04005KT 14/M01 A3021 RMK A01 T01401011  RH  035%=      5-min Rain = 0
KKE1 171925Z 35003KT 14/M01 A3021 RMK A01 T01391011  RH  035%=      5-min Rain = 0
KKE1 171926Z 00004KT 14/M01 A3021 RMK A01 T01401009  RH  036%=      5-min Rain = 0
KKE1 171927Z 35004KT 14/M01 A3021 RMK A01 T01441008  RH  035%=      5-min Rain = 0
KKE1 171928Z 32004KT 15/M01 A302 RMK A01 T01461008  RH  035%=      5-min Rain = 0
KKE1 171929Z 30003KT 15/M01 A302 RMK A01 T01471009  RH  034%=      5-min Rain = 0
KKE1 171930Z 31003KT 15/M01 A302 RMK A01 T01471008  RH  035%=      5-min Rain = 0
KKE1 171931Z 31006KT 15/M01 A302 RMK A01 T01471008  RH  034%=      5-min Rain = 0
KKE1 171932Z 32007KT 15/M01 A302 RMK A01 T01481007  RH  035%=      5-min Rain = 0
KKE1 171933Z 33007KT 15/M01 A302 RMK A01 T01481008  RH  034%=      5-min Rain = 0
KKE1 171934Z 32006KT 15/M01 A302 RMK A01 T01471008  RH  035%=      5-min Rain = 0
KKE1 171935Z 32005KT 15/M01 A302 RMK A01 T01471008  RH  035%=      5-min Rain = 0
KKE1 171936Z 29006KT 15/M01 A3019 RMK A01 T01471007  RH  035%=      5-min Rain = 0
KKE1 171937Z 30005G11KT 15/M01 A3019 RMK A01 T01481008  RH  034%=      5-min Rain = 0
KKE1 171938Z 02007G13KT 15/M01 A3019 RMK A01 T01461010  RH  034%=      5-min Rain = 0
KKE1 171939Z 03007KT 15/M01 A3019 RMK A01 T01451010  RH  035%=      5-min Rain = 0
KKE1 171940Z 02005KT 14/M01 A302 RMK A01 T01431010  RH  035%=      5-min Rain = 0
KKE1 171941Z 03006KT 14/M01 A3019 RMK A01 T01421010  RH  035%=      5-min Rain = 0
KKE1 171942Z 02004KT 14/M01 A3019 RMK A01 T01421010  RH  035%=      5-min Rain = 0
KKE1 171943Z 07005KT 14/M01 A3019 RMK A01 T01411009  RH  036%=      5-min Rain = 0
KKE1 171944Z 07005KT 14/M01 A3019 RMK A01 T01431008  RH  035%=      5-min Rain = 0
KKE1 171945Z 05005KT 14/M01 A3019 RMK A01 T01441008  RH  035%=      5-min Rain = 0
KKE1 171946Z 04003KT 14/M01 A3019 RMK A01 T01421010  RH  035%=      5-min Rain = 0
KKE1 171947Z 06003KT 14/M01 A3019 RMK A01 T01421010  RH  035%=      5-min Rain = 0
KKE1 171948Z 05004KT 14/M01 A3019 RMK A01 T01411010  RH  035%=      5-min Rain = 0
KKE1 171949Z 01005KT 14/M01 A3019 RMK A01 T01441008  RH  035%=      5-min Rain = 0
KKE1 171950Z 31007KT 15/M01 A3019 RMK A01 T01471007  RH  035%=      5-min Rain = 0
KKE1 171951Z 34005KT 15/M01 A3018 RMK A01 T01471009  RH  034%=      5-min Rain = 0
KKE1 171952Z 34006KT 14/M01 A3018 RMK A01 T01431012  RH  034%=      5-min Rain = 0
KKE1 171953Z 36005KT 14/M01 A3018 RMK A01 T01431011  RH  035%=      5-min Rain = 0
KKE1 171954Z 36003KT 14/M01 A3018 RMK A01 T01411011  RH  035%=      5-min Rain = 0
KKE1 171955Z 31003KT 14/M01 A3018 RMK A01 T01421008  RH  035%=      5-min Rain = 0
KKE1 171956Z 27002KT 14/M01 A3018 RMK A01 T01431010  RH  035%=      5-min Rain = 0
KKE1 171957Z 26002KT 14/M01 A3018 RMK A01 T01431009  RH  035%=      5-min Rain = 0
KKE1 171958Z 30001KT 14/M01 A3018 RMK A01 T01431010  RH  035%=      5-min Rain = 0
KKE1 171959Z 28001KT 14/M01 A3017 RMK A01 T01411012  RH  035%=      5-min Rain = 0
KKE1 172000Z 28001KT 14/M01 A3018 RMK A01 T01401012  RH  035%=      5-min Rain = 0
KKE1 172001Z 05003KT 14/M01 A3018 RMK A01 T01401011  RH  035%=      5-min Rain = 0
KKE1 172002Z 32004KT 14/M01 A3017 RMK A01 T01411010  RH  035%=      5-min Rain = 0
KKE1 172003Z 35005KT 14/M01 A3017 RMK A01 T01431010  RH  035%=      5-min Rain = 0
KKE1 172004Z 34005KT 14/M01 A3017 RMK A01 T01441011  RH  035%=      5-min Rain = 0
KKE1 172005Z 35005KT 14/M01 A3017 RMK A01 T01431011  RH  035%=      5-min Rain = 0
KKE1 172006Z 35004KT 14/M01 A3017 RMK A01 T01441010  RH  035%=      5-min Rain = 0
KKE1 172007Z 35004KT 15/M01 A3017 RMK A01 T01451009  RH  035%=      5-min Rain = 0
KKE1 172008Z 35005KT 15/M01 A3018 RMK A01 T01461010  RH  034%=      5-min Rain = 0
KKE1 172009Z 35003KT 15/M01 A3018 RMK A01 T01461010  RH  034%=      5-min Rain = 0
KKE1 172010Z 00003KT 15/M01 A3017 RMK A01 T01451010  RH  034%=      5-min Rain = 0
KKE1 172011Z 04002KT 15/M01 A3017 RMK A01 T01451011  RH  034%=      5-min Rain = 0
KKE1 172012Z 02000KT 14/M01 A3017 RMK A01 T01431013  RH  034%=      5-min Rain = 0
KKE1 172013Z 35001KT 14/M01 A3017 RMK A01 T01411013  RH  035%=      5-min Rain = 0
KKE1 172014Z 32002KT 14/M01 A3017 RMK A01 T01411012  RH  035%=      5-min Rain = 0
KKE1 172015Z 32000KT 14/M01 A3017 RMK A01 T01411014  RH  034%=      5-min Rain = 0
KKE1 172016Z 00000KT 14/M01 A3017 RMK A01 T01401014  RH  034%=      5-min Rain = 0
KKE1 172017Z 21000KT 14/M01 A3017 RMK A01 T01401013  RH  035%=      5-min Rain = 0
KKE1 172018Z 18003KT 14/M01 A3017 RMK A01 T01421012  RH  035%=      5-min Rain = 0
KKE1 172019Z 19003KT 15/M01 A3017 RMK A01 T01451011  RH  034%=      5-min Rain = 0
KKE1 172020Z 19002KT 15/M01 A3017 RMK A01 T01471011  RH  034%=      5-min Rain = 0
KKE1 172021Z 18002KT 15/M01 A3017 RMK A01 T01491010  RH  033%=      5-min Rain = 0
KKE1 172022Z 23003KT 15/M01 A3017 RMK A01 T01531009  RH  033%=      5-min Rain = 0
KKE1 172023Z 28003KT 15/M01 A3017 RMK A01 T01541010  RH  032%=      5-min Rain = 0
KKE1 172024Z 29004KT 15/M01 A3017 RMK A01 T01511012  RH  033%=      5-min Rain = 0
KKE1 172025Z 33004KT 15/M01 A3017 RMK A01 T01501011  RH  033%=      5-min Rain = 0
KKE1 172026Z 35004KT 15/M01 A3017 RMK A01 T01501011  RH  033%=      5-min Rain = 0
KKE1 172027Z 00003KT 15/M01 A3017 RMK A01 T01491012  RH  033%=      5-min Rain = 0
KKE1 172028Z 35002KT 15/M01 A3017 RMK A01 T01481010  RH  034%=      5-min Rain = 0
KKE1 172029Z 35003KT 15/M01 A3017 RMK A01 T01491010  RH  034%=      5-min Rain = 0
KKE1 172030Z 01001KT 15/M01 A3017 RMK A01 T01511009  RH  033%=      5-min Rain = 0
KKE1 172031Z 33003KT 15/M01 A3016 RMK A01 T01521008  RH  033%=      5-min Rain = 0
KKE1 172032Z 34006KT 16/M01 A3016 RMK A01 T01551008  RH  033%=      5-min Rain = 0
KKE1 172033Z 32004KT 16/M01 A3016 RMK A01 T01551008  RH  033%=      5-min Rain = 0
KKE1 172034Z 34006KT 15/M01 A3017 RMK A01 T01531009  RH  033%=      5-min Rain = 0
KKE1 172035Z 35005KT 15/M01 A3016 RMK A01 T01511011  RH  033%=      5-min Rain = 0
KKE1 172036Z 35005KT 15/M01 A3016 RMK A01 T01491010  RH  033%=      5-min Rain = 0
KKE1 172037Z 34005KT 15/M01 A3016 RMK A01 T01501009  RH  034%=      5-min Rain = 0
KKE1 172038Z 34006KT 15/M01 A3016 RMK A01 T01501010  RH  033%=      5-min Rain = 0
KKE1 172039Z 34006KT 15/M01 A3016 RMK A01 T01501010  RH  033%=      5-min Rain = 0
KKE1 172040Z 35005KT 15/M01 A3016 RMK A01 T01511008  RH  034%=      5-min Rain = 0
KKE1 172041Z 35005KT 15/M01 A3016 RMK A01 T01531010  RH  033%=      5-min Rain = 0
KKE1 172042Z 33004KT 15/M01 A3016 RMK A01 T01511011  RH  033%=      5-min Rain = 0
KKE1 172043Z 33004KT 15/M01 A3016 RMK A01 T01511011  RH  033%=      5-min Rain = 0
KKE1 172044Z 01003KT 15/M01 A3016 RMK A01 T01501011  RH  033%=      5-min Rain = 0
KKE1 172045Z 03003KT 15/M01 A3016 RMK A01 T01501011  RH  033%=      5-min Rain = 0
KKE1 172046Z 36001KT 15/M01 A3016 RMK A01 T01501011  RH  033%=      5-min Rain = 0
KKE1 172047Z 34002KT 15/M01 A3016 RMK A01 T01501010  RH  033%=      5-min Rain = 0
KKE1 172048Z 04002KT 15/M01 A3016 RMK A01 T01511012  RH  033%=      5-min Rain = 0
KKE1 172049Z 07002KT 15/M01 A3016 RMK A01 T01511012  RH  033%=      5-min Rain = 0
KKE1 172050Z 09002KT 15/M01 A3016 RMK A01 T01511012  RH  033%=      5-min Rain = 0
KKE1 172051Z 08002KT 15/M01 A3016 RMK A01 T01521010  RH  033%=      5-min Rain = 0
KKE1 172052Z 09000KT 15/M01 A3016 RMK A01 T01531009  RH  033%=      5-min Rain = 0
KKE1 172053Z 01001KT 16/M01 A3016 RMK A01 T01561008  RH  033%=      5-min Rain = 0
KKE1 172054Z 05003KT 16/M01 A3016 RMK A01 T01571010  RH  032%=      5-min Rain = 0
KKE1 172055Z 32003KT 16/M01 A3016 RMK A01 T01571009  RH  032%=      5-min Rain = 0
KKE1 172056Z 31005KT 16/M01 A3016 RMK A01 T01571010  RH  032%=      5-min Rain = 0
KKE1 172057Z 30004KT 16/M01 A3016 RMK A01 T01551012  RH  032%=      5-min Rain = 0
KKE1 172058Z 28003KT 15/M01 A3016 RMK A01 T01541011  RH  032%=      5-min Rain = 0
KKE1 172059Z 27004KT 16/M01 A3016 RMK A01 T01551010  RH  032%=      5-min Rain = 0
KKE1 172100Z 31003KT 16/M01 A3016 RMK A01 T01551010  RH  032%=      5-min Rain = 0
KKE1 172101Z 30004KT 16/M01 A3016 RMK A01 T01581007  RH  033%=      5-min Rain = 0
KKE1 172102Z 35003KT 16/M01 A3016 RMK A01 T01611007  RH  032%=      5-min Rain = 0
KKE1 172103Z 35003KT 16/M01 A3016 RMK A01 T01601011  RH  031%=      5-min Rain = 0
KKE1 172104Z 00003KT 16/M01 A3016 RMK A01 T01571012  RH  031%=      5-min Rain = 0
KKE1 172105Z 01003KT 16/M01 A3016 RMK A01 T01571011  RH  032%=      5-min Rain = 0
KKE1 172106Z 01004KT 16/M01 A3016 RMK A01 T01561011  RH  032%=      5-min Rain = 0
KKE1 172107Z 01003KT 16/M01 A3016 RMK A01 T01561010  RH  032%=      5-min Rain = 0
KKE1 172108Z 04002KT 16/M01 A3016 RMK A01 T01561011  RH  032%=      5-min Rain = 0
KKE1 172109Z 04002KT 16/M01 A3016 RMK A01 T01551011  RH  032%=      5-min Rain = 0
KKE1 172110Z 05001KT 15/M01 A3016 RMK A01 T01541012  RH  032%=      5-min Rain = 0
KKE1 172111Z 06003KT 15/M01 A3016 RMK A01 T01531012  RH  032%=      5-min Rain = 0
KKE1 172112Z 10002KT 15/M01 A3016 RMK A01 T01521011  RH  032%=      5-min Rain = 0
KKE1 172113Z 13001KT 15/M01 A3016 RMK A01 T01521012  RH  032%=      5-min Rain = 0
KKE1 172114Z 14001KT 15/M01 A3016 RMK A01 T01541011  RH  032%=      5-min Rain = 0
KKE1 172115Z 14000KT 16/M01 A3016 RMK A01 T01551010  RH  032%=      5-min Rain = 0
KKE1 172116Z 05002KT 16/M01 A3016 RMK A01 T01581010  RH  032%=      5-min Rain = 0
KKE1 172117Z 06002KT 16/M01 A3016 RMK A01 T01591011  RH  031%=      5-min Rain = 0
KKE1 172118Z 04003KT 16/M01 A3015 RMK A01 T01571011  RH  032%=      5-min Rain = 0
KKE1 172119Z 03005KT 16/M01 A3015 RMK A01 T01581008  RH  032%=      5-min Rain = 0
KKE1 172120Z 01002KT 16/M01 A3015 RMK A01 T01601010  RH  031%=      5-min Rain = 0
KKE1 172121Z 02002KT 16/M01 A3015 RMK A01 T01591010  RH  031%=      5-min Rain = 0
KKE1 172122Z 06002KT 16/M01 A3015 RMK A01 T01591011  RH  031%=      5-min Rain = 0
KKE1 172123Z 06001KT 16/M01 A3015 RMK A01 T01581011  RH  031%=      5-min Rain = 0
KKE1 172124Z 11000KT 16/M01 A3015 RMK A01 T01571011  RH  032%=      5-min Rain = 0
KKE1 172125Z 35002KT 16/M01 A3016 RMK A01 T01581011  RH  031%=      5-min Rain = 0
KKE1 172126Z 35004KT 16/M01 A3016 RMK A01 T01591009  RH  032%=      5-min Rain = 0
KKE1 172127Z 00004KT 16/M01 A3016 RMK A01 T01591009  RH  032%=      5-min Rain = 0
KKE1 172128Z 36004KT 16/M01 A3016 RMK A01 T01571009  RH  032%=      5-min Rain = 0
KKE1 172129Z 00002KT 16/M01 A3016 RMK A01 T01571010  RH  032%=      5-min Rain = 0
KKE1 172130Z 36002KT 16/M01 A3016 RMK A01 T01571008  RH  032%=      5-min Rain = 0
KKE1 172131Z 01002KT 16/M01 A3016 RMK A01 T01581009  RH  032%=      5-min Rain = 0
KKE1 172132Z 36001KT 16/M01 A3016 RMK A01 T01581009  RH  032%=      5-min Rain = 0
KKE1 172133Z 05000KT 16/M01 A3015 RMK A01 T01591010  RH  032%=      5-min Rain = 0
KKE1 172134Z 02000KT 16/M01 A3015 RMK A01 T01591009  RH  032%=      5-min Rain = 0
KKE1 172135Z 04001KT 16/M01 A3015 RMK A01 T01601009  RH  032%=      5-min Rain = 0
KKE1 172136Z 13001KT 16/M01 A3015 RMK A01 T01611009  RH  031%=      5-min Rain = 0
KKE1 172137Z 14002KT 16/M01 A3016 RMK A01 T01621009  RH  031%=      5-min Rain = 0
KKE1 172138Z 13002KT 16/M01 A3016 RMK A01 T01631009  RH  031%=      5-min Rain = 0
KKE1 172139Z 12001KT 17/M01 A3016 RMK A01 T01651009  RH  031%=      5-min Rain = 0
KKE1 172140Z 32001KT 17/M01 A3016 RMK A01 T01671008  RH  030%=      5-min Rain = 0
KKE1 172141Z 29002KT 17/M01 A3016 RMK A01 T01661009  RH  030%=      5-min Rain = 0
KKE1 172142Z 31004KT 17/M01 A3016 RMK A01 T01651009  RH  030%=      5-min Rain = 0
KKE1 172143Z 32006KT 17/M01 A3016 RMK A01 T01651009  RH  031%=      5-min Rain = 0
KKE1 172144Z 34006KT 17/M01 A3016 RMK A01 T01651009  RH  031%=      5-min Rain = 0
KKE1 172145Z 34006KT 16/M01 A3015 RMK A01 T01631011  RH  030%=      5-min Rain = 0
KKE1 172146Z 34006KT 16/M01 A3015 RMK A01 T01611011  RH  031%=      5-min Rain = 0
KKE1 172147Z 34003KT 16/M01 A3015 RMK A01 T01601011  RH  031%=      5-min Rain = 0
KKE1 172148Z 33004KT 16/M01 A3015 RMK A01 T01591009  RH  032%=      5-min Rain = 0
KKE1 172149Z 33003KT 16/M01 A3016 RMK A01 T01611010  RH  031%=      5-min Rain = 0
KKE1 172150Z 35003KT 16/M01 A3016 RMK A01 T01601011  RH  031%=      5-min Rain = 0
KKE1 172151Z 36007KT 16/M01 A3016 RMK A01 T01601009  RH  031%=      5-min Rain = 0
KKE1 172152Z 33006KT 16/M01 A3016 RMK A01 T01591010  RH  031%=      5-min Rain = 0
KKE1 172153Z 35006KT 16/M01 A3016 RMK A01 T01591009  RH  032%=      5-min Rain = 0
KKE1 172154Z 00004KT 16/M01 A3016 RMK A01 T01601010  RH  031%=      5-min Rain = 0
KKE1 172155Z 00006KT 16/M01 A3016 RMK A01 T01591011  RH  031%=      5-min Rain = 0
KKE1 172156Z 36005KT 16/M01 A3016 RMK A01 T01591011  RH  031%=      5-min Rain = 0
KKE1 172157Z 35004KT 16/M01 A3016 RMK A01 T01591011  RH  031%=      5-min Rain = 0
KKE1 172158Z 35004KT 16/M01 A3016 RMK A01 T01591011  RH  031%=      5-min Rain = 0
KKE1 172159Z 34004KT 16/M01 A3015 RMK A01 T01581011  RH  031%=      5-min Rain = 0
KKE1 172200Z 34007KT 16/M01 A3015 RMK A01 T01581011  RH  032%=      5-min Rain = 0
KKE1 172201Z 31006KT 16/M01 A3015 RMK A01 T01581010  RH  032%=      5-min Rain = 0
KKE1 172202Z 32005G10KT 16/M01 A3015 RMK A01 T01591009  RH  032%=      5-min Rain = 0
KKE1 172203Z 32006KT 16/M01 A3015 RMK A01 T01611009  RH  031%=      5-min Rain = 0
KKE1 172204Z 34005KT 16/M01 A3015 RMK A01 T01601010  RH  031%=      5-min Rain = 0
KKE1 172205Z 35005KT 16/M01 A3015 RMK A01 T01611009  RH  031%=      5-min Rain = 0
KKE1 172206Z 34004KT 16/M01 A3015 RMK A01 T01611010  RH  031%=      5-min Rain = 0
KKE1 172207Z 34003KT 16/M01 A3015 RMK A01 T01601010  RH  031%=      5-min Rain = 0
KKE1 172208Z 35002KT 16/M01 A3015 RMK A01 T01581011  RH  032%=      5-min Rain = 0
KKE1 172209Z 32003KT 16/M01 A3015 RMK A01 T01571010  RH  032%=      5-min Rain = 0
KKE1 172210Z 34003KT 16/M01 A3015 RMK A01 T01581010  RH  032%=      5-min Rain = 0
KKE1 172211Z 36005KT 16/M01 A3015 RMK A01 T01591009  RH  032%=      5-min Rain = 0
KKE1 172212Z 35006KT 16/M01 A3015 RMK A01 T01591009  RH  032%=      5-min Rain = 0
KKE1 172213Z 34006KT 16/M01 A3015 RMK A01 T01601009  RH  031%=      5-min Rain = 0
KKE1 172214Z 34004KT 16/M01 A3015 RMK A01 T01601009  RH  031%=      5-min Rain = 0
KKE1 172215Z 34004KT 16/M01 A3015 RMK A01 T01601010  RH  031%=      5-min Rain = 0
KKE1 172216Z 02006KT 16/M01 A3015 RMK A01 T01601008  RH  032%=      5-min Rain = 0
KKE1 172217Z 03004KT 16/M01 A3015 RMK A01 T01601009  RH  031%=      5-min Rain = 0
KKE1 172218Z 05003KT 16/M01 A3015 RMK A01 T01591010  RH  031%=      5-min Rain = 0
KKE1 172219Z 00003KT 16/M01 A3015 RMK A01 T01581009  RH  032%=      5-min Rain = 0
KKE1 172220Z 03006KT 16/M01 A3015 RMK A01 T01591008  RH  032%=      5-min Rain = 0
KKE1 172221Z 04007KT 16/M01 A3015 RMK A01 T01601007  RH  032%=      5-min Rain = 0
KKE1 172222Z 03006KT 16/M01 A3015 RMK A01 T01581008  RH  032%=      5-min Rain = 0
KKE1 172223Z 03005KT 16/M01 A3015 RMK A01 T01571008  RH  032%=      5-min Rain = 0
KKE1 172224Z 04006KT 16/M01 A3015 RMK A01 T01571007  RH  032%=      5-min Rain = 0
KKE1 172225Z 04006KT 16/M01 A3015 RMK A01 T01591006  RH  032%=      5-min Rain = 0
KKE1 172226Z 03006KT 16/M01 A3015 RMK A01 T01591008  RH  032%=      5-min Rain = 0
KKE1 172227Z 03005KT 16/M01 A3016 RMK A01 T01591008  RH  032%=      5-min Rain = 0
KKE1 172228Z 01005KT 16/M01 A3016 RMK A01 T01581008  RH  032%=      5-min Rain = 0
KKE1 172229Z 36004KT 16/M01 A3016 RMK A01 T01581008  RH  032%=      5-min Rain = 0
KKE1 172230Z 01004KT 16/M01 A3016 RMK A01 T01591007  RH  032%=      5-min Rain = 0
KKE1 172231Z 02004KT 16/M01 A3016 RMK A01 T01591008  RH  032%=      5-min Rain = 0
KKE1 172232Z 03005KT 16/M01 A3016 RMK A01 T01601007  RH  032%=      5-min Rain = 0
KKE1 172233Z 03007KT 16/M01 A3016 RMK A01 T01601009  RH  032%=      5-min Rain = 0
KKE1 172234Z 03006KT 16/M01 A3016 RMK A01 T01591009  RH  032%=      5-min Rain = 0
KKE1 172235Z 01005KT 16/M01 A3015 RMK A01 T01591008  RH  032%=      5-min Rain = 0
KKE1 172236Z 36005KT 16/M01 A3015 RMK A01 T01591009  RH  032%=      5-min Rain = 0
KKE1 172237Z 36004KT 16/M01 A3015 RMK A01 T01581010  RH  032%=      5-min Rain = 0
KKE1 172238Z 01005KT 16/M01 A3015 RMK A01 T01571009  RH  032%=      5-min Rain = 0
KKE1 172239Z 00006KT 16/M01 A3015 RMK A01 T01581009  RH  032%=      5-min Rain = 0
KKE1 172240Z 02003KT 16/M01 A3015 RMK A01 T01571010  RH  032%=      5-min Rain = 0
KKE1 172241Z 02003KT 16/M01 A3015 RMK A01 T01561010  RH  032%=      5-min Rain = 0
KKE1 172242Z 02004KT 16/M01 A3015 RMK A01 T01561009  RH  032%=      5-min Rain = 0
KKE1 172243Z 02003KT 16/M01 A3015 RMK A01 T01571009  RH  032%=      5-min Rain = 0
KKE1 172244Z 01005KT 16/M01 A3015 RMK A01 T01571009  RH  032%=      5-min Rain = 0
KKE1 172245Z 02005KT 16/M01 A3015 RMK A01 T01571009  RH  032%=      5-min Rain = 0
KKE1 172246Z 02006KT 16/M01 A3015 RMK A01 T01571009  RH  032%=      5-min Rain = 0
KKE1 172247Z 01004KT 16/M01 A3015 RMK A01 T01571010  RH  032%=      5-min Rain = 0
KKE1 172248Z 02006KT 16/M01 A3015 RMK A01 T01561010  RH  032%=      5-min Rain = 0
KKE1 172249Z 03005KT 16/M01 A3015 RMK A01 T01561009  RH  032%=      5-min Rain = 0
KKE1 172250Z 01006KT 16/M01 A3015 RMK A01 T01561008  RH  032%=      5-min Rain = 0
KKE1 172251Z 01006KT 16/M01 A3015 RMK A01 T01561008  RH  032%=      5-min Rain = 0
KKE1 172252Z 00006KT 16/M01 A3015 RMK A01 T01561009  RH  032%=      5-min Rain = 0
KKE1 172253Z 02005KT 16/M01 A3015 RMK A01 T01551008  RH  033%=      5-min Rain = 0
KKE1 172254Z 00007KT 16/M01 A3015 RMK A01 T01551008  RH  033%=      5-min Rain = 0
KKE1 172255Z 01005KT 16/M01 A3015 RMK A01 T01551010  RH  032%=      5-min Rain = 0
KKE1 172256Z 02005KT 16/M01 A3015 RMK A01 T01551010  RH  032%=      5-min Rain = 0
KKE1 172257Z 02005KT 16/M01 A3015 RMK A01 T01551009  RH  032%=      5-min Rain = 0
KKE1 172258Z 01005KT 16/M01 A3015 RMK A01 T01551009  RH  033%=      5-min Rain = 0
KKE1 172259Z 35005KT 16/M01 A3015 RMK A01 T01551008  RH  033%=      5-min Rain = 0
KKE1 172300Z 36004KT 15/M01 A3015 RMK A01 T01541008  RH  033%=      5-min Rain = 0
KKE1 172301Z 04003KT 15/M01 A3015 RMK A01 T01541008  RH  033%=      5-min Rain = 0
KKE1 172302Z 05003KT 16/M01 A3015 RMK A01 T01561008  RH  033%=      5-min Rain = 0
KKE1 172303Z 05003KT 16/M01 A3015 RMK A01 T01561009  RH  032%=      5-min Rain = 0
KKE1 172304Z 02002KT 16/M01 A3015 RMK A01 T01561009  RH  032%=      5-min Rain = 0
KKE1 172305Z 02001KT 16/M01 A3015 RMK A01 T01551009  RH  033%=      5-min Rain = 0
KKE1 172306Z 34003KT 16/M01 A3015 RMK A01 T01551008  RH  033%=      5-min Rain = 0
KKE1 172307Z 34003KT 16/M01 A3015 RMK A01 T01561009  RH  032%=      5-min Rain = 0
KKE1 172308Z 02005KT 16/M01 A3015 RMK A01 T01551009  RH  033%=      5-min Rain = 0
KKE1 172309Z 01007KT 16/M01 A3015 RMK A01 T01551008  RH  033%=      5-min Rain = 0
KKE1 172310Z 01006KT 15/M01 A3015 RMK A01 T01541008  RH  033%=      5-min Rain = 0
KKE1 172311Z 00006KT 15/M01 A3015 RMK A01 T01531008  RH  033%=      5-min Rain = 0
KKE1 172312Z 36004KT 15/M01 A3015 RMK A01 T01531009  RH  033%=      5-min Rain = 0
KKE1 172313Z 36005KT 15/M01 A3015 RMK A01 T01521009  RH  033%=      5-min Rain = 0
KKE1 172314Z 01005KT 15/M01 A3015 RMK A01 T01521009  RH  033%=      5-min Rain = 0
KKE1 172315Z 01006KT 15/M01 A3015 RMK A01 T01511008  RH  033%=      5-min Rain = 0
KKE1 172316Z 02006KT 15/M01 A3015 RMK A01 T01511009  RH  033%=      5-min Rain = 0
KKE1 172317Z 02005KT 15/M01 A3015 RMK A01 T01501009  RH  033%=      5-min Rain = 0
KKE1 172318Z 02006KT 15/M01 A3015 RMK A01 T01501009  RH  034%=      5-min Rain = 0
KKE1 172319Z 01003KT 15/M01 A3015 RMK A01 T01501009  RH  034%=      5-min Rain = 0
KKE1 172320Z 02004KT 15/M01 A3015 RMK A01 T01501008  RH  034%=      5-min Rain = 0
KKE1 172321Z 02003KT 15/M01 A3015 RMK A01 T01501009  RH  034%=      5-min Rain = 0
KKE1 172322Z 01003KT 15/M01 A3015 RMK A01 T01491009  RH  034%=      5-min Rain = 0
KKE1 172323Z 02003KT 15/M01 A3015 RMK A01 T01491009  RH  034%=      5-min Rain = 0
KKE1 172324Z 03002KT 15/M01 A3015 RMK A01 T01491009  RH  034%=      5-min Rain = 0
KKE1 172325Z 03004KT 15/M01 A3015 RMK A01 T01491009  RH  034%=      5-min Rain = 0
KKE1 172326Z 03003KT 15/M01 A3015 RMK A01 T01491009  RH  034%=      5-min Rain = 0
KKE1 172327Z 02002KT 15/M01 A3015 RMK A01 T01481010  RH  034%=      5-min Rain = 0
KKE1 172328Z 04002KT 15/M01 A3015 RMK A01 T01471010  RH  034%=      5-min Rain = 0
KKE1 172329Z 06003KT 15/M01 A3015 RMK A01 T01481009  RH  034%=      5-min Rain = 0
KKE1 172330Z 05003KT 15/M01 A3015 RMK A01 T01471009  RH  034%=      5-min Rain = 0
KKE1 172331Z 05002KT 15/M01 A3015 RMK A01 T01471010  RH  034%=      5-min Rain = 0
KKE1 172332Z 03003KT 15/M01 A3015 RMK A01 T01481010  RH  034%=      5-min Rain = 0
KKE1 172333Z 03003KT 15/M01 A3015 RMK A01 T01471010  RH  034%=      5-min Rain = 0
KKE1 172334Z 03002KT 15/M01 A3015 RMK A01 T01471009  RH  034%=      5-min Rain = 0
KKE1 172335Z 01003KT 15/M01 A3015 RMK A01 T01461009  RH  034%=      5-min Rain = 0
KKE1 172336Z 00002KT 15/M01 A3015 RMK A01 T01461009  RH  035%=      5-min Rain = 0
KKE1 172337Z 35002KT 15/M01 A3015 RMK A01 T01451009  RH  035%=      5-min Rain = 0
KKE1 172338Z 35003KT 14/M01 A3015 RMK A01 T01441009  RH  035%=      5-min Rain = 0
KKE1 172339Z 35004KT 14/M01 A3015 RMK A01 T01431009  RH  035%=      5-min Rain = 0
KKE1 172340Z 35004KT 14/M01 A3015 RMK A01 T01431009  RH  035%=      5-min Rain = 0
KKE1 172341Z 00003KT 14/M01 A3015 RMK A01 T01421009  RH  035%=      5-min Rain = 0
KKE1 172342Z 36003KT 14/M01 A3015 RMK A01 T01421009  RH  035%=      5-min Rain = 0
KKE1 172343Z 00003KT 14/M01 A3015 RMK A01 T01411009  RH  036%=      5-min Rain = 0
KKE1 172344Z 01003KT 14/M01 A3015 RMK A01 T01411009  RH  036%=      5-min Rain = 0
KKE1 172345Z 00003KT 14/M01 A3015 RMK A01 T01401009  RH  036%=      5-min Rain = 0
KKE1 172346Z 01003KT 14/M01 A3015 RMK A01 T01391009  RH  036%=      5-min Rain = 0
KKE1 172347Z 01003KT 14/M01 A3015 RMK A01 T01381009  RH  036%=      5-min Rain = 0
KKE1 172348Z 00003KT 14/M01 A3015 RMK A01 T01381009  RH  036%=      5-min Rain = 0
KKE1 172349Z 00003KT 14/M01 A3015 RMK A01 T01371009  RH  037%=      5-min Rain = 0
KKE1 172350Z 00003KT 14/M01 A3015 RMK A01 T01361009  RH  037%=      5-min Rain = 0
KKE1 172351Z 00004KT 14/M01 A3015 RMK A01 T01361009  RH  037%=      5-min Rain = 0
KKE1 172352Z 01003KT 13/M01 A3015 RMK A01 T01341009  RH  037%=      5-min Rain = 0
KKE1 172353Z 01003KT 13/M01 A3015 RMK A01 T01331008  RH  038%=      5-min Rain = 0
KKE1 172354Z 02002KT 13/M01 A3015 RMK A01 T01331008  RH  038%=      5-min Rain = 0
KKE1 172355Z 01002KT 13/M01 A3015 RMK A01 T01331008  RH  038%=      5-min Rain = 0
KKE1 172356Z 36002KT 13/M01 A3015 RMK A01 T01321008  RH  038%=      5-min Rain = 0
KKE1 172357Z 01001KT 13/M01 A3015 RMK A01 T01311008  RH  038%=      5-min Rain = 0
KKE1 172358Z 01001KT 13/M01 A3015 RMK A01 T01301008  RH  038%=      5-min Rain = 0
KKE1 172359Z 00001KT 13/M01 A3015 RMK A01 T01311007  RH  039%=      5-min Rain = 0
KKE1 180000Z 35001KT 13/M01 A3015 RMK A01 T01301008  RH  039%=      5-min Rain = 0
KKE1 180001Z 00001KT 13/M01 A3015 RMK A01 T01291008  RH  039%=      5-min Rain = 0
KKE1 180002Z 00001KT 13/M01 A3015 RMK A01 T01291008  RH  039%=      5-min Rain = 0
KKE1 180003Z 00001KT 13/M01 A3015 RMK A01 T01291007  RH  039%=      5-min Rain = 0
KKE1 180004Z 01002KT 13/M01 A3015 RMK A01 T01281007  RH  039%=      5-min Rain = 0
KKE1 180005Z 00002KT 13/M01 A3015 RMK A01 T01281007  RH  039%=      5-min Rain = 0
KKE1 180006Z 00003KT 13/M01 A3015 RMK A01 T01281008  RH  039%=      5-min Rain = 0
KKE1 180007Z 00002KT 13/M01 A3015 RMK A01 T01271008  RH  039%=      5-min Rain = 0
KKE1 180008Z 02002KT 13/M01 A3015 RMK A01 T01261008  RH  040%=      5-min Rain = 0
KKE1 180009Z 04003KT 13/M01 A3015 RMK A01 T01251007  RH  040%=      5-min Rain = 0
KKE1 180010Z 05002KT 13/M01 A3015 RMK A01 T01251007  RH  040%=      5-min Rain = 0
KKE1 180011Z 06002KT 12/M01 A3015 RMK A01 T01241006  RH  040%=      5-min Rain = 0
KKE1 180012Z 05002KT 12/M01 A3015 RMK A01 T01241006  RH  040%=      5-min Rain = 0
KKE1 180013Z 05001KT 13/M01 A3015 RMK A01 T01251006  RH  040%=      5-min Rain = 0
KKE1 180014Z 06000KT 13/M01 A3015 RMK A01 T01251006  RH  040%=      5-min Rain = 0
KKE1 180015Z 05000KT 13/M01 A3015 RMK A01 T01251006  RH  040%=      5-min Rain = 0
KKE1 180016Z 05001KT 13/M01 A3015 RMK A01 T01251006  RH  040%=      5-min Rain = 0
KKE1 180017Z 07001KT 13/M01 A3015 RMK A01 T01251006  RH  041%=      5-min Rain = 0
KKE1 180018Z 08001KT 12/M01 A3015 RMK A01 T01241006  RH  041%=      5-min Rain = 0
KKE1 180019Z 11000KT 13/M01 A3015 RMK A01 T01251005  RH  041%=      5-min Rain = 0
KKE1 180020Z 17001KT 13/M01 A3015 RMK A01 T01251005  RH  040%=      5-min Rain = 0
KKE1 180021Z 17001KT 13/M01 A3015 RMK A01 T01261005  RH  040%=      5-min Rain = 0
KKE1 180022Z 17001KT 13/M01 A3015 RMK A01 T01251006  RH  040%=      5-min Rain = 0
KKE1 180023Z 17001KT 12/M01 A3015 RMK A01 T01241007  RH  041%=      5-min Rain = 0
KKE1 180024Z 17001KT 12/M01 A3015 RMK A01 T01221007  RH  041%=      5-min Rain = 0
KKE1 180025Z 17001KT 12/M01 A3015 RMK A01 T01201007  RH  041%=      5-min Rain = 0
KKE1 180026Z 19002KT 12/M01 A3016 RMK A01 T01191007  RH  042%=      5-min Rain = 0
KKE1 180027Z 20003KT 12/M01 A3016 RMK A01 T01181007  RH  042%=      5-min Rain = 0
KKE1 180028Z 19003KT 12/M01 A3016 RMK A01 T01161007  RH  042%=      5-min Rain = 0
KKE1 180029Z 18003KT 11/M01 A3016 RMK A01 T01141008  RH  043%=      5-min Rain = 0
KKE1 180030Z 17003KT 11/M01 A3016 RMK A01 T01101009  RH  044%=      5-min Rain = 0
KKE1 180031Z 17004KT 11/M01 A3016 RMK A01 T01081008  RH  044%=      5-min Rain = 0
KKE1 180032Z 17004KT 11/M01 A3015 RMK A01 T01061008  RH  045%=      5-min Rain = 0
KKE1 180033Z 16004KT 11/M01 A3015 RMK A01 T01051008  RH  046%=      5-min Rain = 0
KKE1 180034Z 17003KT 10/M01 A3015 RMK A01 T01041008  RH  046%=      5-min Rain = 0
KKE1 180035Z 16003KT 10/M01 A3015 RMK A01 T01041007  RH  046%=      5-min Rain = 0
KKE1 180036Z 17004KT 10/M01 A3015 RMK A01 T01031008  RH  046%=      5-min Rain = 0
KKE1 180037Z 17004KT 10/M01 A3015 RMK A01 T01021008  RH  046%=      5-min Rain = 0
KKE1 180038Z 16004KT 10/M01 A3015 RMK A01 T01021007  RH  047%=      5-min Rain = 0
KKE1 180039Z 16005KT 10/M01 A3015 RMK A01 T01031007  RH  046%=      5-min Rain = 0
KKE1 180040Z 16005KT 10/M01 A3015 RMK A01 T01031007  RH  046%=      5-min Rain = 0
KKE1 180041Z 16005KT 10/M01 A3015 RMK A01 T01041007  RH  046%=      5-min Rain = 0
KKE1 180042Z 16004KT 10/M01 A3015 RMK A01 T01041007  RH  046%=      5-min Rain = 0
KKE1 180043Z 16004KT 10/M01 A3015 RMK A01 T01041007  RH  046%=      5-min Rain = 0
KKE1 180044Z 16003KT 10/M01 A3015 RMK A01 T01031007  RH  046%=      5-min Rain = 0
KKE1 180045Z 17003KT 10/M01 A3015 RMK A01 T01021007  RH  047%=      5-min Rain = 0
KKE1 180046Z 17003KT 10/M01 A3015 RMK A01 T01021007  RH  047%=      5-min Rain = 0
KKE1 180047Z 18003KT 10/M01 A3015 RMK A01 T01031007  RH  046%=      5-min Rain = 0
KKE1 180048Z 19002KT 10/M01 A3015 RMK A01 T01001011  RH  046%=      5-min Rain = 0
KKE1 180049Z 16000KT 10/M01 A3015 RMK A01 T00951013  RH  047%=      5-min Rain = 0
KKE1 180050Z 00000KT 09/M01 A3015 RMK A01 T00921013  RH  048%=      5-min Rain = 0
KKE1 180051Z 11000KT 09/M01 A3015 RMK A01 T00891012  RH  049%=      5-min Rain = 0
KKE1 180052Z 09000KT 09/M01 A3015 RMK A01 T00881011  RH  050%=      5-min Rain = 0
KKE1 180053Z 32000KT 09/M01 A3015 RMK A01 T00881010  RH  050%=      5-min Rain = 0
KKE1 180054Z 31001KT 09/M01 A3015 RMK A01 T00881009  RH  050%=      5-min Rain = 0
KKE1 180055Z 29001KT 09/M01 A3015 RMK A01 T00891009  RH  050%=      5-min Rain = 0
KKE1 180056Z 29001KT 09/M01 A3015 RMK A01 T00891009  RH  050%=      5-min Rain = 0
KKE1 180057Z 29001KT 09/M01 A3015 RMK A01 T00901009  RH  050%=      5-min Rain = 0
KKE1 180058Z 29001KT 09/M01 A3015 RMK A01 T00901009  RH  050%=      5-min Rain = 0
KKE1 180059Z 29001KT 09/M01 A3015 RMK A01 T00901009  RH  050%=      5-min Rain = 0
KKE1 180100Z 29000KT 09/M01 A3015 RMK A01 T00901008  RH  050%=      5-min Rain = 0
KKE1 180101Z 29000KT 09/M01 A3015 RMK A01 T00901008  RH  050%=      5-min Rain = 0
KKE1 180102Z 19000KT 09/M01 A3015 RMK A01 T00911008  RH  050%=      5-min Rain = 0
KKE1 180103Z 19001KT 09/M01 A3015 RMK A01 T00921007  RH  050%=      5-min Rain = 0
KKE1 180104Z 18001KT 09/M01 A3015 RMK A01 T00931007  RH  050%=      5-min Rain = 0
KKE1 180105Z 18002KT 09/M01 A3015 RMK A01 T00931008  RH  049%=      5-min Rain = 0
KKE1 180106Z 00000KT 09/M01 A3015 RMK A01 T00931008  RH  049%=      5-min Rain = 0
KKE1 180107Z 00000KT 09/M01 A3015 RMK A01 T00931009  RH  049%=      5-min Rain = 0
KKE1 180108Z 00000KT 09/M01 A3015 RMK A01 T00921008  RH  049%=      5-min Rain = 0
KKE1 180109Z 17000KT 09/M01 A3015 RMK A01 T00921008  RH  050%=      5-min Rain = 0
KKE1 180110Z 17000KT 09/M01 A3015 RMK A01 T00921008  RH  050%=      5-min Rain = 0
KKE1 180111Z 00000KT 09/M01 A3015 RMK A01 T00911008  RH  050%=      5-min Rain = 0
KKE1 180112Z 00000KT 09/M01 A3015 RMK A01 T00931006  RH  050%=      5-min Rain = 0
KKE1 180113Z 19000KT 10/M01 A3015 RMK A01 T00951006  RH  049%=      5-min Rain = 0
KKE1 180114Z 31000KT 09/M01 A3015 RMK A01 T00941009  RH  049%=      5-min Rain = 0
KKE1 180115Z 33001KT 09/M01 A3016 RMK A01 T00921010  RH  049%=      5-min Rain = 0
KKE1 180116Z 35001KT 09/M01 A3016 RMK A01 T00901011  RH  049%=      5-min Rain = 0
KKE1 180117Z 36002KT 09/M01 A3016 RMK A01 T00881011  RH  050%=      5-min Rain = 0
KKE1 180118Z 01002KT 09/M01 A3016 RMK A01 T00871010  RH  050%=      5-min Rain = 0
KKE1 180119Z 00002KT 09/M01 A3016 RMK A01 T00861010  RH  051%=      5-min Rain = 0
KKE1 180120Z 00002KT 09/M01 A3016 RMK A01 T00861008  RH  051%=      5-min Rain = 0
KKE1 180121Z 00001KT 09/M01 A3016 RMK A01 T00881008  RH  051%=      5-min Rain = 0
KKE1 180122Z 00000KT 09/M01 A3016 RMK A01 T00891007  RH  051%=      5-min Rain = 0
KKE1 180123Z 00000KT 09/M01 A3016 RMK A01 T00891008  RH  051%=      5-min Rain = 0
KKE1 180124Z 00000KT 09/M01 A3016 RMK A01 T00891008  RH  051%=      5-min Rain = 0
KKE1 180125Z 00000KT 09/M01 A3016 RMK A01 T00881009  RH  051%=      5-min Rain = 0
KKE1 180126Z 09000KT 09/M01 A3016 RMK A01 T00871009  RH  051%=      5-min Rain = 0
KKE1 180127Z 09000KT 09/M01 A3016 RMK A01 T00861008  RH  051%=      5-min Rain = 0
KKE1 180128Z 13001KT 09/M01 A3016 RMK A01 T00861008  RH  052%=      5-min Rain = 0
KKE1 180129Z 14001KT 09/M01 A3016 RMK A01 T00871007  RH  052%=      5-min Rain = 0
KKE1 180130Z 14001KT 09/M01 A3016 RMK A01 T00881007  RH  051%=      5-min Rain = 0
KKE1 180131Z 16001KT 09/M01 A3016 RMK A01 T00901006  RH  051%=      5-min Rain = 0
KKE1 180132Z 16001KT 09/M01 A3016 RMK A01 T00911006  RH  051%=      5-min Rain = 0
KKE1 180133Z 16001KT 09/M01 A3016 RMK A01 T00921006  RH  050%=      5-min Rain = 0
KKE1 180134Z 18002KT 09/M01 A3016 RMK A01 T00921006  RH  050%=      5-min Rain = 0
KKE1 180135Z 19002KT 09/M01 A3016 RMK A01 T00921007  RH  050%=      5-min Rain = 0
KKE1 180136Z 19003KT 09/M01 A3016 RMK A01 T00921007  RH  050%=      5-min Rain = 0
KKE1 180137Z 19003KT 09/M01 A3016 RMK A01 T00911007  RH  050%=      5-min Rain = 0
KKE1 180138Z 19002KT 09/M01 A3016 RMK A01 T00901008  RH  050%=      5-min Rain = 0
KKE1 180139Z 19002KT 09/M01 A3016 RMK A01 T00901008  RH  051%=      5-min Rain = 0
KKE1 180140Z 20001KT 09/M01 A3016 RMK A01 T00891008  RH  051%=      5-min Rain = 0
KKE1 180141Z 20001KT 09/M01 A3016 RMK A01 T00881008  RH  051%=      5-min Rain = 0
KKE1 180142Z 20000KT 09/M01 A3016 RMK A01 T00871008  RH  051%=      5-min Rain = 0
KKE1 180143Z 00000KT 09/M01 A3016 RMK A01 T00871008  RH  051%=      5-min Rain = 0
KKE1 180144Z 00000KT 09/M01 A3016 RMK A01 T00861010  RH  051%=      5-min Rain = 0
KKE1 180145Z 00000KT 09/M01 A3016 RMK A01 T00851010  RH  051%=      5-min Rain = 0
KKE1 180146Z 00000KT 08/M01 A3016 RMK A01 T00841009  RH  052%=      5-min Rain = 0
KKE1 180147Z 20000KT 08/M01 A3016 RMK A01 T00841008  RH  052%=      5-min Rain = 0
KKE1 180148Z 20001KT 08/M01 A3016 RMK A01 T00841008  RH  052%=      5-min Rain = 0
KKE1 180149Z 20001KT 08/M01 A3016 RMK A01 T00841009  RH  052%=      5-min Rain = 0
KKE1 180150Z 20000KT 08/M01 A3016 RMK A01 T00831009  RH  052%=      5-min Rain = 0
KKE1 180151Z 20001KT 08/M01 A3016 RMK A01 T00811010  RH  052%=      5-min Rain = 0
KKE1 180152Z 20000KT 08/M01 A3016 RMK A01 T00771014  RH  052%=      5-min Rain = 0
KKE1 180153Z 00000KT 07/M01 A3017 RMK A01 T00741014  RH  054%=      5-min Rain = 0
KKE1 180154Z 00000KT 07/M01 A3017 RMK A01 T00721011  RH  055%=      5-min Rain = 0
KKE1 180155Z 00000KT 07/M01 A3017 RMK A01 T00731011  RH  056%=      5-min Rain = 0
KKE1 180156Z 00000KT 07/M01 A3017 RMK A01 T00731010  RH  056%=      5-min Rain = 0
KKE1 180157Z 00000KT 08/M01 A3017 RMK A01 T00751009  RH  055%=      5-min Rain = 0
KKE1 180158Z 00000KT 08/M01 A3017 RMK A01 T00761009  RH  055%=      5-min Rain = 0
KKE1 180159Z 19000KT 08/M01 A3017 RMK A01 T00771009  RH  055%=      5-min Rain = 0
KKE1 180200Z 19000KT 08/M01 A3017 RMK A01 T00781009  RH  054%=      5-min Rain = 0
KKE1 180201Z 18002KT 08/M01 A3017 RMK A01 T00791009  RH  054%=      5-min Rain = 0
KKE1 180202Z 19002KT 08/M01 A3017 RMK A01 T00791009  RH  054%=      5-min Rain = 0
KKE1 180203Z 17002KT 08/M01 A3017 RMK A01 T00791009  RH  054%=      5-min Rain = 0
KKE1 180204Z 16002KT 08/M01 A3017 RMK A01 T00801009  RH  053%=      5-min Rain = 0
KKE1 180205Z 16002KT 08/M01 A3017 RMK A01 T00811009  RH  053%=      5-min Rain = 0
KKE1 180206Z 16002KT 08/M01 A3017 RMK A01 T00811009  RH  053%=      5-min Rain = 0
KKE1 180207Z 17002KT 08/M01 A3017 RMK A01 T00811009  RH  053%=      5-min Rain = 0
KKE1 180208Z 18002KT 08/M01 A3017 RMK A01 T00791011  RH  053%=      5-min Rain = 0
KKE1 180209Z 19002KT 08/M01 A3017 RMK A01 T00751013  RH  053%=      5-min Rain = 0
KKE1 180210Z 19002KT 07/M01 A3017 RMK A01 T00721013  RH  055%=      5-min Rain = 0
KKE1 180211Z 19002KT 07/M01 A3016 RMK A01 T00721012  RH  055%=      5-min Rain = 0
KKE1 180212Z 19003KT 07/M01 A3016 RMK A01 T00711012  RH  056%=      5-min Rain = 0
KKE1 180213Z 19003KT 07/M01 A3016 RMK A01 T00711011  RH  056%=      5-min Rain = 0
KKE1 180214Z 19003KT 07/M01 A3016 RMK A01 T00711010  RH  056%=      5-min Rain = 0
KKE1 180215Z 19003KT 07/M01 A3017 RMK A01 T00731008  RH  056%=      5-min Rain = 0
KKE1 180216Z 18002KT 08/M01 A3017 RMK A01 T00751008  RH  056%=      5-min Rain = 0
KKE1 180217Z 18002KT 08/M01 A3017 RMK A01 T00771007  RH  055%=      5-min Rain = 0
KKE1 180218Z 16003KT 08/M01 A3017 RMK A01 T00781007  RH  055%=      5-min Rain = 0
KKE1 180219Z 15004KT 08/M01 A3017 RMK A01 T00791008  RH  054%=      5-min Rain = 0
KKE1 180220Z 15004KT 08/M01 A3017 RMK A01 T00791008  RH  054%=      5-min Rain = 0
KKE1 180221Z 15003KT 08/M01 A3017 RMK A01 T00791008  RH  054%=      5-min Rain = 0
KKE1 180222Z 16002KT 08/M01 A3017 RMK A01 T00791008  RH  054%=      5-min Rain = 0
KKE1 180223Z 18002KT 08/M01 A3017 RMK A01 T00801008  RH  054%=      5-min Rain = 0
KKE1 180224Z 19002KT 08/M01 A3017 RMK A01 T00791008  RH  054%=      5-min Rain = 0
KKE1 180225Z 18002KT 08/M01 A3017 RMK A01 T00781009  RH  054%=      5-min Rain = 0
KKE1 180226Z 19002KT 08/M01 A3017 RMK A01 T00771009  RH  054%=      5-min Rain = 0
KKE1 180227Z 18002KT 08/M01 A3017 RMK A01 T00771009  RH  054%=      5-min Rain = 0
KKE1 180228Z 19003KT 08/M01 A3017 RMK A01 T00761009  RH  055%=      5-min Rain = 0
KKE1 180229Z 19004KT 08/M01 A3017 RMK A01 T00761010  RH  055%=      5-min Rain = 0
KKE1 180230Z 19003KT 08/M01 A3017 RMK A01 T00751010  RH  055%=      5-min Rain = 0
KKE1 180231Z 19003KT 07/M01 A3017 RMK A01 T00741010  RH  055%=      5-min Rain = 0
KKE1 180232Z 18002KT 07/M01 A3017 RMK A01 T00731011  RH  055%=      5-min Rain = 0
KKE1 180233Z 19001KT 07/M02 A3017 RMK A01 T00691016  RH  055%=      5-min Rain = 0
KKE1 180234Z 19001KT 07/M02 A3017 RMK A01 T00661017  RH  056%=      5-min Rain = 0
KKE1 180235Z 19001KT 06/M02 A3017 RMK A01 T00621017  RH  057%=      5-min Rain = 0
KKE1 180236Z 18001KT 06/M02 A3017 RMK A01 T00611016  RH  058%=      5-min Rain = 0
KKE1 180237Z 21000KT 06/M01 A3017 RMK A01 T00601014  RH  059%=      5-min Rain = 0
KKE1 180238Z 17000KT 06/M02 A3017 RMK A01 T00601016  RH  058%=      5-min Rain = 0
KKE1 180239Z 17000KT 06/M02 A3017 RMK A01 T00591015  RH  059%=      5-min Rain = 0
KKE1 180240Z 19001KT 06/M01 A3017 RMK A01 T00591014  RH  059%=      5-min Rain = 0
KKE1 180241Z 18001KT 06/M01 A3017 RMK A01 T00581014  RH  060%=      5-min Rain = 0
KKE1 180242Z 18002KT 06/M01 A3017 RMK A01 T00581013  RH  060%=      5-min Rain = 0
KKE1 180243Z 18002KT 06/M01 A3017 RMK A01 T00581013  RH  060%=      5-min Rain = 0
KKE1 180244Z 18002KT 06/M01 A3017 RMK A01 T00581014  RH  060%=      5-min Rain = 0
KKE1 180245Z 20001KT 06/M01 A3017 RMK A01 T00591013  RH  060%=      5-min Rain = 0
KKE1 180246Z 20001KT 06/M01 A3017 RMK A01 T00591012  RH  060%=      5-min Rain = 0
KKE1 180247Z 00000KT 06/M01 A3017 RMK A01 T00591012  RH  060%=      5-min Rain = 0
KKE1 180248Z 00000KT 06/M01 A3017 RMK A01 T00591013  RH  060%=      5-min Rain = 0
KKE1 180249Z 20000KT 06/M01 A3017 RMK A01 T00591014  RH  059%=      5-min Rain = 0
KKE1 180250Z 20000KT 06/M01 A3017 RMK A01 T00591014  RH  060%=      5-min Rain = 0
KKE1 180251Z 19001KT 06/M01 A3017 RMK A01 T00581012  RH  061%=      5-min Rain = 0
KKE1 180252Z 18001KT 06/M01 A3017 RMK A01 T00581012  RH  060%=      5-min Rain = 0
KKE1 180253Z 18001KT 06/M01 A3017 RMK A01 T00581012  RH  061%=      5-min Rain = 0
KKE1 180254Z 19002KT 06/M01 A3017 RMK A01 T00601009  RH  061%=      5-min Rain = 0
KKE1 180255Z 17001KT 06/M01 A3017 RMK A01 T00621009  RH  060%=      5-min Rain = 0
KKE1 180256Z 19001KT 06/M01 A3017 RMK A01 T00621011  RH  059%=      5-min Rain = 0
KKE1 180257Z 19000KT 06/M01 A3017 RMK A01 T00631010  RH  059%=      5-min Rain = 0
KKE1 180258Z 13000KT 06/M01 A3017 RMK A01 T00631011  RH  059%=      5-min Rain = 0
KKE1 180259Z 00000KT 06/M01 A3017 RMK A01 T00641012  RH  059%=      5-min Rain = 0
KKE1 180300Z 00000KT 06/M01 A3017 RMK A01 T00631013  RH  058%=      5-min Rain = 0
KKE1 180301Z 00000KT 06/M01 A3017 RMK A01 T00611014  RH  059%=      5-min Rain = 0
KKE1 180302Z 00000KT 06/M01 A3017 RMK A01 T00601014  RH  059%=      5-min Rain = 0
KKE1 180303Z 00000KT 06/M01 A3017 RMK A01 T00591013  RH  060%=      5-min Rain = 0
KKE1 180304Z 00000KT 06/M01 A3017 RMK A01 T00581012  RH  061%=      5-min Rain = 0
KKE1 180305Z 00000KT 06/M01 A3017 RMK A01 T00581012  RH  061%=      5-min Rain = 0
KKE1 180306Z 00000KT 06/M01 A3017 RMK A01 T00581011  RH  061%=      5-min Rain = 0
KKE1 180307Z 13000KT 06/M01 A3017 RMK A01 T00591011  RH  061%=      5-min Rain = 0
KKE1 180308Z 00000KT 06/M01 A3017 RMK A01 T00591011  RH  061%=      5-min Rain = 0
KKE1 180309Z 00000KT 06/M01 A3017 RMK A01 T00621009  RH  061%=      5-min Rain = 0
KKE1 180310Z 00000KT 07/M01 A3017 RMK A01 T00651009  RH  059%=      5-min Rain = 0
KKE1 180311Z 00000KT 07/M01 A3017 RMK A01 T00661010  RH  058%=      5-min Rain = 0
KKE1 180312Z 00000KT 07/M01 A3017 RMK A01 T00661010  RH  058%=      5-min Rain = 0
KKE1 180313Z 13000KT 07/M01 A3017 RMK A01 T00651011  RH  058%=      5-min Rain = 0
KKE1 180314Z 13000KT 06/M01 A3017 RMK A01 T00641011  RH  058%=      5-min Rain = 0
KKE1 180315Z 13000KT 06/M01 A3017 RMK A01 T00641012  RH  059%=      5-min Rain = 0
KKE1 180316Z 00000KT 06/M01 A3017 RMK A01 T00631012  RH  059%=      5-min Rain = 0
KKE1 180317Z 00000KT 06/M01 A3017 RMK A01 T00631011  RH  059%=      5-min Rain = 0
KKE1 180318Z 00000KT 06/M01 A3017 RMK A01 T00621011  RH  059%=      5-min Rain = 0
KKE1 180319Z 04000KT 06/M01 A3017 RMK A01 T00621011  RH  060%=      5-min Rain = 0
KKE1 180320Z 14000KT 06/M01 A3017 RMK A01 T00641009  RH  060%=      5-min Rain = 0
KKE1 180321Z 16002KT 07/M01 A3017 RMK A01 T00651009  RH  059%=      5-min Rain = 0
KKE1 180322Z 17003KT 07/M01 A3017 RMK A01 T00681007  RH  059%=      5-min Rain = 0
KKE1 180323Z 16002KT 07/M01 A3017 RMK A01 T00721007  RH  057%=      5-min Rain = 0
KKE1 180324Z 17001KT 07/M01 A3018 RMK A01 T00741007  RH  056%=      5-min Rain = 0
KKE1 180325Z 19002KT 07/M01 A3018 RMK A01 T00741008  RH  056%=      5-min Rain = 0
KKE1 180326Z 20002KT 07/M01 A3018 RMK A01 T00741008  RH  056%=      5-min Rain = 0
KKE1 180327Z 20002KT 07/M01 A3018 RMK A01 T00731009  RH  056%=      5-min Rain = 0
KKE1 180328Z 20003KT 07/M01 A3017 RMK A01 T00731008  RH  056%=      5-min Rain = 0
KKE1 180329Z 19003KT 07/M01 A3017 RMK A01 T00731008  RH  056%=      5-min Rain = 0
KKE1 180330Z 19003KT 07/M01 A3017 RMK A01 T00741008  RH  056%=      5-min Rain = 0
KKE1 180331Z 17004KT 07/M01 A3017 RMK A01 T00741008  RH  056%=      5-min Rain = 0
KKE1 180332Z 17005KT 07/M01 A3017 RMK A01 T00731008  RH  056%=      5-min Rain = 0
KKE1 180333Z 16005KT 07/M01 A3017 RMK A01 T00721008  RH  057%=      5-min Rain = 0
KKE1 180334Z 16004KT 07/M01 A3017 RMK A01 T00721008  RH  057%=      5-min Rain = 0
KKE1 180335Z 16004KT 07/M01 A3017 RMK A01 T00721008  RH  057%=      5-min Rain = 0
KKE1 180336Z 17003KT 07/M01 A3017 RMK A01 T00721008  RH  057%=      5-min Rain = 0
KKE1 180337Z 18003KT 07/M01 A3017 RMK A01 T00721008  RH  057%=      5-min Rain = 0
KKE1 180338Z 18002KT 07/M01 A3017 RMK A01 T00731007  RH  057%=      5-min Rain = 0
KKE1 180339Z 18002KT 07/M01 A3017 RMK A01 T00741007  RH  057%=      5-min Rain = 0
KKE1 180340Z 18002KT 07/M01 A3016 RMK A01 T00741008  RH  056%=      5-min Rain = 0
KKE1 180341Z 19002KT 07/M01 A3016 RMK A01 T00731010  RH  056%=      5-min Rain = 0
KKE1 180342Z 20002KT 07/M01 A3016 RMK A01 T00701013  RH  055%=      5-min Rain = 0
KKE1 180343Z 19002KT 07/M01 A3016 RMK A01 T00681014  RH  056%=      5-min Rain = 0
KKE1 180344Z 18001KT 07/M01 A3016 RMK A01 T00661011  RH  058%=      5-min Rain = 0
KKE1 180345Z 17000KT 07/M01 A3016 RMK A01 T00661010  RH  058%=      5-min Rain = 0
KKE1 180346Z 17001KT 07/M01 A3016 RMK A01 T00661012  RH  057%=      5-min Rain = 0
KKE1 180347Z 17000KT 07/M01 A3016 RMK A01 T00661013  RH  057%=      5-min Rain = 0
KKE1 180348Z 00000KT 06/M01 A3016 RMK A01 T00641013  RH  058%=      5-min Rain = 0
KKE1 180349Z 17000KT 06/M01 A3016 RMK A01 T00631012  RH  059%=      5-min Rain = 0
KKE1 180350Z 17000KT 06/M01 A3016 RMK A01 T00631011  RH  059%=      5-min Rain = 0
KKE1 180351Z 00000KT 06/M01 A3016 RMK A01 T00621011  RH  059%=      5-min Rain = 0
KKE1 180352Z 17000KT 06/M01 A3016 RMK A01 T00631010  RH  060%=      5-min Rain = 0
KKE1 180353Z 20002KT 07/M01 A3016 RMK A01 T00651009  RH  059%=      5-min Rain = 0
KKE1 180354Z 20002KT 07/M01 A3016 RMK A01 T00671008  RH  059%=      5-min Rain = 0
KKE1 180355Z 20001KT 07/M01 A3016 RMK A01 T00691007  RH  058%=      5-min Rain = 0
KKE1 180356Z 19002KT 07/M01 A3016 RMK A01 T00711007  RH  058%=      5-min Rain = 0
KKE1 180357Z 20003KT 07/M01 A3016 RMK A01 T00721008  RH  057%=      5-min Rain = 0
KKE1 180358Z 20003KT 07/M01 A3016 RMK A01 T00731009  RH  056%=      5-min Rain = 0
KKE1 180359Z 20003KT 07/M01 A3016 RMK A01 T00731010  RH  056%=      5-min Rain = 0
KKE1 180400Z 20003KT 07/M01 A3016 RMK A01 T00711011  RH  056%=      5-min Rain = 0
KKE1 180401Z 20003KT 07/M01 A3016 RMK A01 T00701011  RH  056%=      5-min Rain = 0
KKE1 180402Z 20003KT 07/M01 A3016 RMK A01 T00691012  RH  056%=      5-min Rain = 0
KKE1 180403Z 21003KT 07/M01 A3016 RMK A01 T00691012  RH  056%=      5-min Rain = 0
KKE1 180404Z 21003KT 07/M01 A3016 RMK A01 T00681012  RH  057%=      5-min Rain = 0
KKE1 180405Z 22003KT 07/M01 A3016 RMK A01 T00671012  RH  057%=      5-min Rain = 0
KKE1 180406Z 21002KT 07/M01 A3016 RMK A01 T00671012  RH  057%=      5-min Rain = 0
KKE1 180407Z 21002KT 07/M01 A3016 RMK A01 T00681012  RH  057%=      5-min Rain = 0
KKE1 180408Z 21003KT 07/M01 A3016 RMK A01 T00671012  RH  057%=      5-min Rain = 0
KKE1 180409Z 21002KT 07/M01 A3016 RMK A01 T00671012  RH  057%=      5-min Rain = 0
KKE1 180410Z 22002KT 07/M01 A3016 RMK A01 T00651013  RH  057%=      5-min Rain = 0
KKE1 180411Z 21002KT 06/M01 A3016 RMK A01 T00641013  RH  058%=      5-min Rain = 0
KKE1 180412Z 21002KT 06/M01 A3016 RMK A01 T00631013  RH  058%=      5-min Rain = 0
KKE1 180413Z 20003KT 06/M01 A3016 RMK A01 T00611014  RH  058%=      5-min Rain = 0
KKE1 180414Z 21003KT 06/M01 A3016 RMK A01 T00601014  RH  059%=      5-min Rain = 0
KKE1 180415Z 21003KT 06/M01 A3016 RMK A01 T00591013  RH  060%=      5-min Rain = 0
KKE1 180416Z 22003KT 06/M01 A3016 RMK A01 T00591013  RH  060%=      5-min Rain = 0
KKE1 180417Z 22004KT 06/M01 A3016 RMK A01 T00591013  RH  060%=      5-min Rain = 0
KKE1 180418Z 22004KT 06/M01 A3016 RMK A01 T00581014  RH  060%=      5-min Rain = 0
KKE1 180419Z 22005KT 06/M01 A3016 RMK A01 T00581014  RH  060%=      5-min Rain = 0
KKE1 180420Z 21005KT 06/M01 A3016 RMK A01 T00561014  RH  060%=      5-min Rain = 0
KKE1 180421Z 22005KT 06/M01 A3015 RMK A01 T00561014  RH  061%=      5-min Rain = 0
KKE1 180422Z 22006KT 06/M01 A3015 RMK A01 T00551014  RH  061%=      5-min Rain = 0
KKE1 180423Z 21006KT 06/M01 A3015 RMK A01 T00551014  RH  061%=      5-min Rain = 0
KKE1 180424Z 21006KT 06/M01 A3015 RMK A01 T00551013  RH  061%=      5-min Rain = 0
KKE1 180425Z 21006KT 06/M01 A3015 RMK A01 T00561013  RH  061%=      5-min Rain = 0
KKE1 180426Z 21005KT 06/M01 A3015 RMK A01 T00571013  RH  061%=      5-min Rain = 0
KKE1 180427Z 22006KT 06/M01 A3015 RMK A01 T00571013  RH  061%=      5-min Rain = 0
KKE1 180428Z 22005KT 06/M01 A3015 RMK A01 T00571013  RH  060%=      5-min Rain = 0
KKE1 180429Z 22005KT 06/M01 A3015 RMK A01 T00571014  RH  060%=      5-min Rain = 0
KKE1 180430Z 21005KT 06/M01 A3015 RMK A01 T00571014  RH  060%=      5-min Rain = 0
KKE1 180431Z 21004KT 06/M01 A3015 RMK A01 T00561014  RH  060%=      5-min Rain = 0
KKE1 180432Z 21004KT 06/M01 A3015 RMK A01 T00571014  RH  061%=      5-min Rain = 0
KKE1 180433Z 21004KT 06/M01 A3015 RMK A01 T00571014  RH  060%=      5-min Rain = 0
KKE1 180434Z 22002KT 06/M02 A3015 RMK A01 T00561015  RH  060%=      5-min Rain = 0
KKE1 180435Z 22000KT 06/M02 A3015 RMK A01 T00551015  RH  061%=      5-min Rain = 0
KKE1 180436Z 21000KT 05/M02 A3015 RMK A01 T00541015  RH  061%=      5-min Rain = 0
KKE1 180437Z 19002KT 05/M02 A3015 RMK A01 T00531016  RH  061%=      5-min Rain = 0
KKE1 180438Z 19001KT 05/M02 A3015 RMK A01 T00521015  RH  062%=      5-min Rain = 0
KKE1 180439Z 19000KT 05/M01 A3015 RMK A01 T00531014  RH  062%=      5-min Rain = 0
KKE1 180440Z 19000KT 05/M01 A3015 RMK A01 T00531014  RH  062%=      5-min Rain = 0
KKE1 180441Z 18001KT 05/M01 A3015 RMK A01 T00541014  RH  061%=      5-min Rain = 0
KKE1 180442Z 16001KT 05/M01 A3015 RMK A01 T00541014  RH  061%=      5-min Rain = 0
KKE1 180443Z 17001KT 06/M01 A3015 RMK A01 T00551013  RH  061%=      5-min Rain = 0
KKE1 180444Z 19002KT 06/M02 A3015 RMK A01 T00551015  RH  061%=      5-min Rain = 0
KKE1 180445Z 20002KT 05/M02 A3015 RMK A01 T00531016  RH  061%=      5-min Rain = 0
KKE1 180446Z 21002KT 05/M02 A3015 RMK A01 T00521015  RH  062%=      5-min Rain = 0
KKE1 180447Z 20001KT 05/M02 A3015 RMK A01 T00511015  RH  062%=      5-min Rain = 0
KKE1 180448Z 20001KT 05/M02 A3015 RMK A01 T00501015  RH  063%=      5-min Rain = 0
KKE1 180449Z 20002KT 05/M02 A3015 RMK A01 T00491016  RH  063%=      5-min Rain = 0
KKE1 180450Z 20001KT 05/M02 A3015 RMK A01 T00491016  RH  063%=      5-min Rain = 0
KKE1 180451Z 20001KT 05/M02 A3015 RMK A01 T00481015  RH  063%=      5-min Rain = 0
KKE1 180452Z 20001KT 05/M02 A3015 RMK A01 T00491015  RH  063%=      5-min Rain = 0
KKE1 180453Z 20002KT 05/M02 A3015 RMK A01 T00491016  RH  063%=      5-min Rain = 0
KKE1 180454Z 20001KT 05/M02 A3015 RMK A01 T00501016  RH  063%=      5-min Rain = 0
KKE1 180455Z 20002KT 05/M02 A3015 RMK A01 T00501016  RH  062%=      5-min Rain = 0
KKE1 180456Z 20003KT 05/M02 A3015 RMK A01 T00491018  RH  062%=      5-min Rain = 0
KKE1 180457Z 21002KT 05/M02 A3015 RMK A01 T00471019  RH  062%=      5-min Rain = 0
KKE1 180458Z 21002KT 04/M02 A3015 RMK A01 T00431021  RH  063%=      5-min Rain = 0
KKE1 180459Z 21002KT 04/M02 A3015 RMK A01 T00411020  RH  064%=      5-min Rain = 0
KKE1 180500Z 22002KT 04/M02 A3015 RMK A01 T00401019  RH  065%=      5-min Rain = 0
KKE1 180501Z 22002KT 04/M02 A3015 RMK A01 T00401018  RH  066%=      5-min Rain = 0
KKE1 180502Z 22002KT 04/M02 A3015 RMK A01 T00401018  RH  066%=      5-min Rain = 0
KKE1 180503Z 22003KT 04/M02 A3015 RMK A01 T00421017  RH  065%=      5-min Rain = 0
KKE1 180504Z 21003KT 04/M02 A3015 RMK A01 T00431017  RH  065%=      5-min Rain = 0
KKE1 180505Z 21004KT 04/M02 A3015 RMK A01 T00441017  RH  065%=      5-min Rain = 0
KKE1 180506Z 21004KT 05/M02 A3015 RMK A01 T00451016  RH  064%=      5-min Rain = 0
KKE1 180507Z 21004KT 05/M02 A3015 RMK A01 T00461017  RH  064%=      5-min Rain = 0
KKE1 180508Z 21004KT 05/M02 A3015 RMK A01 T00471016  RH  064%=      5-min Rain = 0
KKE1 180509Z 22004KT 05/M02 A3015 RMK A01 T00461017  RH  064%=      5-min Rain = 0
KKE1 180510Z 22005KT 05/M02 A3015 RMK A01 T00471017  RH  064%=      5-min Rain = 0
KKE1 180511Z 22005KT 05/M02 A3014 RMK A01 T00471017  RH  063%=      5-min Rain = 0
KKE1 180512Z 21005KT 05/M02 A3014 RMK A01 T00461018  RH  063%=      5-min Rain = 0
KKE1 180513Z 21005KT 05/M02 A3014 RMK A01 T00461017  RH  063%=      5-min Rain = 0
KKE1 180514Z 20004KT 05/M02 A3014 RMK A01 T00461017  RH  063%=      5-min Rain = 0
KKE1 180515Z 20004KT 05/M02 A3014 RMK A01 T00461017  RH  063%=      5-min Rain = 0
KKE1 180516Z 20004KT 05/M02 A3014 RMK A01 T00461017  RH  064%=      5-min Rain = 0
KKE1 180517Z 21002KT 05/M02 A3014 RMK A01 T00451017  RH  064%=      5-min Rain = 0
KKE1 180518Z 21000KT 05/M02 A3014 RMK A01 T00451018  RH  064%=      5-min Rain = 0
KKE1 180519Z 00000KT 04/M02 A3014 RMK A01 T00441018  RH  064%=      5-min Rain = 0
KKE1 180520Z 00000KT 04/M02 A3014 RMK A01 T00431018  RH  064%=      5-min Rain = 0
KKE1 180521Z 21000KT 04/M02 A3014 RMK A01 T00421020  RH  064%=      5-min Rain = 0
KKE1 180522Z 21001KT 04/M02 A3014 RMK A01 T00421019  RH  065%=      5-min Rain = 0
KKE1 180523Z 21001KT 04/M02 A3014 RMK A01 T00411019  RH  065%=      5-min Rain = 0
KKE1 180524Z 21001KT 04/M02 A3014 RMK A01 T00401020  RH  065%=      5-min Rain = 0
KKE1 180525Z 21001KT 04/M02 A3014 RMK A01 T00391018  RH  066%=      5-min Rain = 0
KKE1 180526Z 21001KT 04/M02 A3014 RMK A01 T00401017  RH  066%=      5-min Rain = 0
KKE1 180527Z 21001KT 04/M02 A3014 RMK A01 T00411017  RH  066%=      5-min Rain = 0
KKE1 180528Z 21001KT 04/M02 A3014 RMK A01 T00411017  RH  066%=      5-min Rain = 0
KKE1 180529Z 21000KT 04/M02 A3014 RMK A01 T00421017  RH  066%=      5-min Rain = 0
KKE1 180530Z 21001KT 04/M02 A3013 RMK A01 T00421017  RH  066%=      5-min Rain = 0
KKE1 180531Z 21001KT 04/M02 A3013 RMK A01 T00421017  RH  066%=      5-min Rain = 0
KKE1 180532Z 00000KT 04/M02 A3013 RMK A01 T00421017  RH  065%=      5-min Rain = 0
KKE1 180533Z 21001KT 04/M02 A3013 RMK A01 T00431016  RH  065%=      5-min Rain = 0
KKE1 180534Z 22001KT 04/M02 A3013 RMK A01 T00431017  RH  065%=      5-min Rain = 0
KKE1 180535Z 22002KT 04/M02 A3013 RMK A01 T00421017  RH  065%=      5-min Rain = 0
KKE1 180536Z 21002KT 04/M02 A3013 RMK A01 T00431018  RH  065%=      5-min Rain = 0
KKE1 180537Z 21001KT 04/M02 A3013 RMK A01 T00431018  RH  065%=      5-min Rain = 0
KKE1 180538Z 22002KT 04/M02 A3013 RMK A01 T00431017  RH  065%=      5-min Rain = 0
KKE1 180539Z 21002KT 04/M02 A3013 RMK A01 T00431017  RH  065%=      5-min Rain = 0
KKE1 180540Z 21002KT 04/M02 A3013 RMK A01 T00441016  RH  065%=      5-min Rain = 0
KKE1 180541Z 20001KT 05/M02 A3013 RMK A01 T00461016  RH  064%=      5-min Rain = 0
KKE1 180542Z 22002KT 05/M02 A3013 RMK A01 T00471016  RH  064%=      5-min Rain = 0
KKE1 180543Z 23003KT 05/M02 A3013 RMK A01 T00481016  RH  063%=      5-min Rain = 0
KKE1 180544Z 23003KT 05/M02 A3013 RMK A01 T00471018  RH  063%=      5-min Rain = 0
KKE1 180545Z 23003KT 05/M02 A3013 RMK A01 T00451019  RH  063%=      5-min Rain = 0
KKE1 180546Z 23003KT 04/M02 A3013 RMK A01 T00431020  RH  064%=      5-min Rain = 0
KKE1 180547Z 23003KT 04/M02 A3013 RMK A01 T00421019  RH  065%=      5-min Rain = 0
KKE1 180548Z 23002KT 04/M02 A3013 RMK A01 T00421019  RH  064%=      5-min Rain = 0
KKE1 180549Z 23002KT 04/M02 A3013 RMK A01 T00421019  RH  065%=      5-min Rain = 0
KKE1 180550Z 24002KT 04/M02 A3013 RMK A01 T00421018  RH  065%=      5-min Rain = 0
KKE1 180551Z 22002KT 04/M02 A3013 RMK A01 T00411018  RH  065%=      5-min Rain = 0
KKE1 180552Z 21003KT 04/M02 A3012 RMK A01 T00421018  RH  065%=      5-min Rain = 0
KKE1 180553Z 21002KT 04/M02 A3012 RMK A01 T00421018  RH  065%=      5-min Rain = 0
KKE1 180554Z 21003KT 04/M02 A3012 RMK A01 T00411018  RH  065%=      5-min Rain = 0
KKE1 180555Z 22003KT 04/M02 A3012 RMK A01 T00431017  RH  065%=      5-min Rain = 0
KKE1 180556Z 23001KT 04/M02 A3012 RMK A01 T00431018  RH  065%=      5-min Rain = 0
KKE1 180557Z 00000KT 04/M02 A3012 RMK A01 T00411020  RH  064%=      5-min Rain = 0
KKE1 180558Z 21002KT 04/M02 A3012 RMK A01 T00401019  RH  066%=      5-min Rain = 0
KKE1 180559Z 21001KT 04/M02 A3012 RMK A01 T00401018  RH  066%=      5-min Rain = 0

Page generated in 0.0818 seconds.